Time,TemperatureF,DewpointF,PressureIn,WindDirection,WindDirectionDegrees,WindSpeedMPH,WindSpeedGustMPH,Humidity,HourlyPrecipIn,Conditions,Clouds,dailyrainin,SoftwareType,DateUTC
2013-05-10 00:00:00,39.0,37.4,28.73,NE,45,11.5,11.5,94,0.02,RA,,0.00,WeatherDisplay:10.37,2013-05-10 05:00:00,
2013-05-10 00:02:00,38.8,37.3,28.73,NE,45,12.7,12.7,94,0.01,RA,,0.00,WeatherDisplay:10.37,2013-05-10 05:02:00,
2013-05-10 00:04:00,38.8,37.0,28.73,North,0,8.1,8.1,93,0.01,RA,,0.00,WeatherDisplay:10.37,2013-05-10 05:04:00,
2013-05-10 00:05:00,38.8,37.0,28.73,NNE,22,6.9,6.9,93,0.01,RA,,0.00,WeatherDisplay:10.37,2013-05-10 05:05:00,
2013-05-10 00:06:00,38.8,37.3,28.73,NNE,22,9.8,9.8,94,0.01,RA,,0.00,WeatherDisplay:10.37,2013-05-10 05:06:00,
2013-05-10 00:07:00,38.8,37.3,28.73,NNE,22,9.2,9.2,94,0.01,RA,,0.00,WeatherDisplay:10.37,2013-05-10 05:07:00,
2013-05-10 00:09:00,38.8,37.3,28.73,NNE,22,15.0,15.0,94,0.01,RA,,0.00,WeatherDisplay:10.37,2013-05-10 05:09:00,
2013-05-10 00:10:00,38.8,37.3,28.73,NE,45,10.4,10.4,94,0.01,CLR,,0.00,WeatherDisplay:10.37,2013-05-10 05:10:00,
2013-05-10 00:11:00,38.8,37.3,28.73,NE,45,9.2,9.2,94,0.01,CLR,,0.00,WeatherDisplay:10.37,2013-05-10 05:11:00,
2013-05-10 00:12:00,38.8,37.3,28.73,NE,45,9.2,9.2,94,0.01,CLR,,0.00,WeatherDisplay:10.37,2013-05-10 05:12:00,
2013-05-10 00:15:00,38.7,37.1,28.73,NNE,22,10.4,10.4,94,0.01,CLR,,0.00,WeatherDisplay:10.37,2013-05-10 05:15:00,
2013-05-10 00:16:00,38.7,37.1,28.73,ENE,68,11.5,11.5,94,0.01,CLR,,0.00,WeatherDisplay:10.37,2013-05-10 05:16:00,
2013-05-10 00:17:00,38.7,37.1,28.73,NE,45,9.2,9.2,94,0.01,CLR,,0.00,WeatherDisplay:10.37,2013-05-10 05:17:00,
2013-05-10 00:18:00,38.7,37.1,28.73,NE,45,8.1,8.1,94,0.01,CLR,,0.00,WeatherDisplay:10.37,2013-05-10 05:18:00,
2013-05-10 00:20:00,38.5,36.9,28.73,ENE,68,9.2,9.2,94,0.00,CLR,,0.00,WeatherDisplay:10.37,2013-05-10 05:20:00,
2013-05-10 00:21:00,38.5,36.9,28.73,NE,45,12.7,12.7,94,0.00,CLR,,0.00,WeatherDisplay:10.37,2013-05-10 05:21:00,
2013-05-10 00:23:00,38.5,36.9,28.73,NE,45,8.1,8.1,94,0.00,CLR,,0.00,WeatherDisplay:10.37,2013-05-10 05:23:00,
2013-05-10 00:24:00,38.5,36.9,28.73,NE,45,9.0,9.0,94,0.00,CLR,,0.00,WeatherDisplay:10.37,2013-05-10 05:24:00,
2013-05-10 00:25:00,38.5,36.9,28.73,NNE,22,14.5,14.5,94,0.00,CLR,,0.00,WeatherDisplay:10.37,2013-05-10 05:25:00,
2013-05-10 00:26:00,38.3,36.5,28.73,ENE,68,15.0,15.0,93,0.00,CLR,,0.01,WeatherDisplay:10.37,2013-05-10 05:26:00,
2013-05-10 00:28:00,38.3,36.5,28.73,NNE,22,11.5,11.5,93,0.01,RA,,0.01,WeatherDisplay:10.37,2013-05-10 05:28:00,
2013-05-10 00:29:00,38.3,36.5,28.73,NNE,22,11.5,11.5,93,0.01,RA,,0.01,WeatherDisplay:10.37,2013-05-10 05:29:00,
2013-05-10 00:31:00,38.1,36.0,28.73,NE,45,12.8,12.8,92,0.01,RA,,0.01,WeatherDisplay:10.37,2013-05-10 05:31:00,
2013-05-10 00:33:00,38.1,35.7,28.73,NE,45,11.5,11.5,91,0.01,RA,,0.01,WeatherDisplay:10.37,2013-05-10 05:33:00,
2013-05-10 00:34:00,38.1,35.7,28.73,NE,45,8.1,8.1,91,0.01,RA,,0.01,WeatherDisplay:10.37,2013-05-10 05:34:00,
2013-05-10 00:36:00,38.1,36.0,28.73,NNE,22,10.4,10.4,92,0.01,RA,,0.01,WeatherDisplay:10.37,2013-05-10 05:36:00,
2013-05-10 00:37:00,38.1,36.0,28.73,ENE,68,10.4,10.4,92,0.01,RA,,0.01,WeatherDisplay:10.37,2013-05-10 05:37:00,
2013-05-10 00:38:00,37.9,35.8,28.73,NE,45,10.4,10.4,92,0.01,,,0.01,WeatherDisplay:10.37,2013-05-10 05:38:00,
2013-05-10 00:39:00,37.9,35.8,28.73,NE,45,11.4,11.4,92,0.01,CLR,,0.01,WeatherDisplay:10.37,2013-05-10 05:39:00,
2013-05-10 00:42:00,37.9,36.1,28.73,NE,45,10.4,10.4,93,0.01,CLR,,0.01,WeatherDisplay:10.37,2013-05-10 05:42:00,
2013-05-10 00:44:00,37.9,36.1,28.73,NNE,22,8.1,8.1,93,0.01,CLR,,0.01,WeatherDisplay:10.37,2013-05-10 05:44:00,
2013-05-10 00:47:00,37.8,36.5,28.73,ENE,68,7.8,7.8,95,0.01,CLR,,0.01,WeatherDisplay:10.37,2013-05-10 05:47:00,
2013-05-10 00:48:00,37.8,36.5,28.73,NNW,338,10.4,10.4,95,0.01,CLR,,0.01,WeatherDisplay:10.37,2013-05-10 05:48:00,
2013-05-10 00:49:00,37.6,36.3,28.73,NE,45,8.1,8.1,95,0.01,CLR,,0.01,WeatherDisplay:10.37,2013-05-10 05:49:00,
2013-05-10 00:50:00,37.6,36.3,28.73,NNE,22,6.9,6.9,95,0.01,CLR,,0.01,WeatherDisplay:10.37,2013-05-10 05:50:00,
2013-05-10 00:52:00,37.4,35.8,28.73,North,0,11.5,11.5,94,0.01,CLR,,0.01,WeatherDisplay:10.37,2013-05-10 05:52:00,
2013-05-10 00:53:00,37.4,35.8,28.73,NE,45,10.4,10.4,94,0.01,CLR,,0.01,WeatherDisplay:10.37,2013-05-10 05:53:00,
2013-05-10 00:54:00,37.4,35.6,28.73,NE,45,10.4,10.4,93,0.01,CLR,,0.01,WeatherDisplay:10.37,2013-05-10 05:54:00,
2013-05-10 00:55:00,37.3,35.5,28.73,NNE,24,7.0,12.0,93,0.00,CLR,,0.01,WeatherDisplay:10.37,2013-05-10 05:55:00,
2013-05-10 00:56:00,37.2,35.7,28.73,NNE,22,9.8,9.8,94,0.01,CLR,,0.01,WeatherDisplay:10.37,2013-05-10 05:56:00,
2013-05-10 00:58:00,37.2,35.7,28.73,North,0,9.2,9.2,94,0.01,CLR,,0.01,WeatherDisplay:10.37,2013-05-10 05:58:00,
2013-05-10 00:59:00,37.2,35.7,28.73,NE,45,9.2,9.2,94,0.01,CLR,,0.01,WeatherDisplay:10.37,2013-05-10 05:59:00,
2013-05-10 01:00:00,37.0,35.2,28.73,ENE,68,6.9,8.5,93,0.01,CLR,,0.01,WeatherDisplay:10.37,2013-05-10 06:00:00,
2013-05-10 01:01:00,37.0,35.2,28.73,NNE,22,11.5,11.5,93,0.01,CLR,,0.01,WeatherDisplay:10.37,2013-05-10 06:01:00,
2013-05-10 01:03:00,37.0,34.9,28.73,NE,45,13.0,13.0,92,0.01,CLR,,0.01,WeatherDisplay:10.37,2013-05-10 06:03:00,
2013-05-10 01:05:00,37.0,34.9,28.73,ENE,68,14.0,14.0,92,0.01,CLR,,0.01,WeatherDisplay:10.37,2013-05-10 06:05:00,
2013-05-10 01:07:00,37.0,34.7,28.73,ENE,68,11.5,11.5,91,0.01,CLR,,0.01,WeatherDisplay:10.37,2013-05-10 06:07:00,
2013-05-10 01:10:00,36.9,34.5,28.73,North,0,10.4,10.4,91,0.01,CLR,,0.01,WeatherDisplay:10.37,2013-05-10 06:10:00,
2013-05-10 01:11:00,36.9,34.5,28.73,NNE,22,12.7,12.7,91,0.01,CLR,,0.01,WeatherDisplay:10.37,2013-05-10 06:11:00,
2013-05-10 01:12:00,36.9,34.5,28.73,ENE,68,16.1,16.1,91,0.01,CLR,,0.01,WeatherDisplay:10.37,2013-05-10 06:12:00,
2013-05-10 01:15:00,36.7,34.3,28.73,NNE,22,8.1,8.1,91,0.01,CLR,,0.01,WeatherDisplay:10.37,2013-05-10 06:15:00,
2013-05-10 01:16:00,36.7,34.3,28.73,NE,45,12.1,12.1,91,0.01,CLR,,0.01,WeatherDisplay:10.37,2013-05-10 06:16:00,
2013-05-10 01:17:00,36.7,34.3,28.73,ENE,68,12.7,12.7,91,0.01,CLR,,0.02,WeatherDisplay:10.37,2013-05-10 06:17:00,
2013-05-10 01:20:00,36.7,34.0,28.73,NNE,22,17.3,17.3,90,0.02,RA,,0.02,WeatherDisplay:10.37,2013-05-10 06:20:00,
2013-05-10 01:21:00,36.7,34.0,28.73,NNE,22,17.3,17.3,90,0.02,RA,,0.02,WeatherDisplay:10.37,2013-05-10 06:21:00,
2013-05-10 01:22:00,36.7,34.3,28.73,East,90,17.3,17.3,91,0.02,RA,,0.02,WeatherDisplay:10.37,2013-05-10 06:22:00,
2013-05-10 01:23:00,36.7,34.3,28.73,NE,45,10.0,10.0,91,0.02,RA,,0.02,WeatherDisplay:10.37,2013-05-10 06:23:00,
2013-05-10 01:25:00,36.5,34.1,28.73,ENE,68,10.9,10.9,91,0.02,RA,,0.02,WeatherDisplay:10.37,2013-05-10 06:25:00,
2013-05-10 01:26:00,36.5,34.1,28.73,NE,45,11.5,11.5,91,0.02,RA,,0.02,WeatherDisplay:10.37,2013-05-10 06:26:00,
2013-05-10 01:27:00,36.5,34.1,28.73,ENE,68,11.5,11.5,91,0.02,RA,,0.02,WeatherDisplay:10.37,2013-05-10 06:27:00,
2013-05-10 01:28:00,36.5,34.1,28.73,East,90,8.1,8.1,91,0.01,,,0.02,WeatherDisplay:10.37,2013-05-10 06:28:00,
2013-05-10 01:31:00,36.3,33.9,28.73,NE,45,12.7,12.7,91,0.01,CLR,,0.02,WeatherDisplay:10.37,2013-05-10 06:31:00,
2013-05-10 01:32:00,36.3,33.9,28.73,NE,45,12.7,12.7,91,0.01,CLR,,0.02,WeatherDisplay:10.37,2013-05-10 06:32:00,
2013-05-10 01:33:00,36.3,33.7,28.73,ENE,68,12.7,12.7,90,0.01,CLR,,0.02,WeatherDisplay:10.37,2013-05-10 06:33:00,
2013-05-10 01:36:00,36.1,33.5,28.73,NE,45,12.7,12.7,90,0.01,CLR,,0.02,WeatherDisplay:10.37,2013-05-10 06:36:00,
2013-05-10 01:37:00,36.1,33.5,28.73,NE,45,10.4,10.4,90,0.01,CLR,,0.02,WeatherDisplay:10.37,2013-05-10 06:37:00,
2013-05-10 01:38:00,36.1,33.8,28.73,NE,45,6.9,6.9,91,0.01,CLR,,0.02,WeatherDisplay:10.37,2013-05-10 06:38:00,
2013-05-10 01:41:00,36.0,33.9,28.76,NE,45,8.1,8.1,92,0.01,CLR,,0.02,WeatherDisplay:10.37,2013-05-10 06:41:00,
2013-05-10 01:43:00,36.0,33.9,28.76,NE,45,10.4,10.4,92,0.01,CLR,,0.02,WeatherDisplay:10.37,2013-05-10 06:43:00,
2013-05-10 01:44:00,36.0,34.1,28.76,NE,45,10.4,10.4,93,0.01,CLR,,0.02,WeatherDisplay:10.37,2013-05-10 06:44:00,
2013-05-10 01:45:00,36.0,34.1,28.76,ENE,68,9.2,9.2,93,0.01,CLR,,0.02,WeatherDisplay:10.37,2013-05-10 06:45:00,
2013-05-10 01:47:00,36.0,34.1,28.76,ENE,68,8.1,8.1,93,0.01,CLR,,0.02,WeatherDisplay:10.37,2013-05-10 06:47:00,
2013-05-10 01:48:00,36.0,34.4,28.76,ENE,68,8.1,8.1,94,0.01,CLR,,0.02,WeatherDisplay:10.37,2013-05-10 06:48:00,
2013-05-10 01:50:00,36.0,34.4,28.76,NE,45,6.9,6.9,94,0.01,CLR,,0.02,WeatherDisplay:10.37,2013-05-10 06:50:00,
2013-05-10 01:51:00,36.0,34.4,28.76,NNE,22,5.8,5.8,94,0.01,CLR,,0.02,WeatherDisplay:10.37,2013-05-10 06:51:00,
2013-05-10 01:53:00,36.0,34.7,28.76,ENE,68,5.8,5.8,95,0.01,CLR,,0.02,WeatherDisplay:10.37,2013-05-10 06:53:00,
2013-05-10 01:55:00,36.0,34.9,28.73,ENE,68,8.1,8.1,96,0.01,CLR,,0.02,WeatherDisplay:10.37,2013-05-10 06:55:00,
2013-05-10 01:56:00,36.0,34.9,28.73,NE,45,12.5,12.5,96,0.01,CLR,,0.02,WeatherDisplay:10.37,2013-05-10 06:56:00,
2013-05-10 01:59:00,36.0,34.9,28.73,NNE,22,6.4,6.4,96,0.01,CLR,,0.02,WeatherDisplay:10.37,2013-05-10 06:59:00,
2013-05-10 02:01:00,36.0,34.9,28.73,ENE,68,6.9,6.9,96,0.01,CLR,,0.02,WeatherDisplay:10.37,2013-05-10 07:01:00,
2013-05-10 02:02:00,36.0,34.9,28.73,NE,45,8.5,8.5,96,0.01,CLR,,0.02,WeatherDisplay:10.37,2013-05-10 07:02:00,
2013-05-10 02:04:00,36.0,34.9,28.73,NNE,22,6.9,6.9,96,0.01,CLR,,0.02,WeatherDisplay:10.37,2013-05-10 07:04:00,
2013-05-10 02:05:00,36.0,34.9,28.73,NE,45,5.8,5.8,96,0.01,CLR,,0.02,WeatherDisplay:10.37,2013-05-10 07:05:00,
2013-05-10 02:06:00,36.0,34.9,28.73,ENE,68,5.8,5.8,96,0.01,CLR,,0.02,WeatherDisplay:10.37,2013-05-10 07:06:00,
2013-05-10 02:08:00,36.0,34.9,28.73,NE,45,6.0,6.0,96,0.01,CLR,,0.02,WeatherDisplay:10.37,2013-05-10 07:08:00,
2013-05-10 02:09:00,36.0,34.9,28.73,North,0,10.4,10.4,96,0.01,CLR,,0.02,WeatherDisplay:10.37,2013-05-10 07:09:00,
2013-05-10 02:10:00,35.9,34.9,28.73,NE,34,7.0,10.0,96,0.00,CLR,,0.02,WeatherDisplay:10.37,2013-05-10 07:10:00,
2013-05-10 02:12:00,35.8,34.5,28.73,East,90,8.1,8.1,95,0.01,CLR,,0.02,WeatherDisplay:10.37,2013-05-10 07:12:00,
2013-05-10 02:13:00,35.8,34.5,28.73,NNE,22,9.2,9.2,95,0.01,CLR,,0.02,WeatherDisplay:10.37,2013-05-10 07:13:00,
2013-05-10 02:15:00,35.8,34.2,28.73,NE,45,11.5,11.5,94,0.01,CLR,,0.02,WeatherDisplay:10.37,2013-05-10 07:15:00,
2013-05-10 02:17:00,35.6,34.0,28.73,NE,45,9.2,9.2,94,0.01,CLR,,0.02,WeatherDisplay:10.37,2013-05-10 07:17:00,
2013-05-10 02:19:00,35.6,34.0,28.73,East,90,6.9,6.9,94,0.00,CLR,,0.02,WeatherDisplay:10.37,2013-05-10 07:19:00,
2013-05-10 02:20:00,35.6,34.0,28.73,NE,45,9.8,9.8,94,0.00,CLR,,0.02,WeatherDisplay:10.37,2013-05-10 07:20:00,
2013-05-10 02:21:00,35.6,34.0,28.73,NNE,22,10.4,10.4,94,0.00,CLR,,0.02,WeatherDisplay:10.37,2013-05-10 07:21:00,
2013-05-10 02:22:00,35.6,34.0,28.73,NE,45,10.4,10.4,94,0.00,CLR,,0.02,WeatherDisplay:10.37,2013-05-10 07:22:00,
2013-05-10 02:24:00,35.6,34.0,28.73,North,0,14.3,14.3,94,0.00,CLR,,0.02,WeatherDisplay:10.37,2013-05-10 07:24:00,
2013-05-10 02:26:00,35.6,34.0,28.73,ENE,68,9.2,9.2,94,0.00,CLR,,0.02,WeatherDisplay:10.37,2013-05-10 07:26:00,
2013-05-10 02:28:00,35.6,34.0,28.73,North,0,10.4,10.4,94,0.00,CLR,,0.02,WeatherDisplay:10.37,2013-05-10 07:28:00,
2013-05-10 02:29:00,35.4,33.9,28.73,North,0,9.2,9.2,94,0.00,CLR,,0.02,WeatherDisplay:10.37,2013-05-10 07:29:00,
2013-05-10 02:31:00,35.4,33.6,28.73,North,0,11.5,11.5,93,0.00,CLR,,0.02,WeatherDisplay:10.37,2013-05-10 07:31:00,
2013-05-10 02:32:00,35.4,33.6,28.73,East,90,11.5,11.5,93,0.00,CLR,,0.02,WeatherDisplay:10.37,2013-05-10 07:32:00,
2013-05-10 02:33:00,35.4,33.6,28.73,NE,45,11.5,11.5,93,0.00,CLR,,0.02,WeatherDisplay:10.37,2013-05-10 07:33:00,
2013-05-10 02:34:00,35.4,33.6,28.73,NE,45,6.9,6.9,93,0.00,CLR,,0.02,WeatherDisplay:10.37,2013-05-10 07:34:00,
2013-05-10 02:37:00,35.2,33.4,28.73,NE,45,15.0,15.0,93,0.00,CLR,,0.02,WeatherDisplay:10.37,2013-05-10 07:37:00,
2013-05-10 02:38:00,35.2,33.1,28.73,NNE,22,15.0,15.0,92,0.00,CLR,,0.02,WeatherDisplay:10.37,2013-05-10 07:38:00,
2013-05-10 02:39:00,35.2,33.1,28.73,NNE,22,5.8,5.8,92,0.00,CLR,,0.02,WeatherDisplay:10.37,2013-05-10 07:39:00,
2013-05-10 02:42:00,35.2,33.4,28.73,ENE,68,9.2,9.2,93,0.00,CLR,,0.02,WeatherDisplay:10.37,2013-05-10 07:42:00,
2013-05-10 02:43:00,35.2,33.4,28.73,NE,45,6.9,6.9,93,0.00,CLR,,0.02,WeatherDisplay:10.37,2013-05-10 07:43:00,
2013-05-10 02:44:00,35.2,33.4,28.73,NNE,22,5.8,5.8,93,0.00,CLR,,0.02,WeatherDisplay:10.37,2013-05-10 07:44:00,
2013-05-10 02:47:00,35.2,33.4,28.73,NE,45,6.4,6.4,93,0.00,CLR,,0.02,WeatherDisplay:10.37,2013-05-10 07:47:00,
2013-05-10 02:48:00,35.2,33.4,28.73,NNE,22,10.5,10.5,93,0.00,CLR,,0.02,WeatherDisplay:10.37,2013-05-10 07:48:00,
2013-05-10 02:49:00,35.2,33.4,28.73,NE,45,10.4,10.4,93,0.00,CLR,,0.02,WeatherDisplay:10.37,2013-05-10 07:49:00,
2013-05-10 02:52:00,35.2,33.4,28.73,ENE,68,11.5,11.5,93,0.00,CLR,,0.02,WeatherDisplay:10.37,2013-05-10 07:52:00,
2013-05-10 02:53:00,35.2,33.4,28.73,NE,45,8.1,8.1,93,0.00,CLR,,0.02,WeatherDisplay:10.37,2013-05-10 07:53:00,
2013-05-10 02:54:00,35.2,33.4,28.73,NNE,22,7.4,7.4,93,0.00,CLR,,0.02,WeatherDisplay:10.37,2013-05-10 07:54:00,
2013-05-10 02:55:00,35.1,33.2,28.76,NNW,338,6.9,6.9,93,0.00,CLR,,0.02,WeatherDisplay:10.37,2013-05-10 07:55:00,
2013-05-10 02:58:00,35.1,33.5,28.76,ENE,68,7.8,7.8,94,0.00,CLR,,0.02,WeatherDisplay:10.37,2013-05-10 07:58:00,
2013-05-10 02:59:00,35.1,33.5,28.76,NE,45,10.4,10.4,94,0.00,CLR,,0.02,WeatherDisplay:10.37,2013-05-10 07:59:00,
2013-05-10 03:00:00,35.1,33.5,28.76,NNE,22,10.4,10.4,94,0.00,CLR,,0.02,WeatherDisplay:10.37,2013-05-10 08:00:00,
2013-05-10 03:03:00,34.9,33.3,28.76,NE,45,6.9,6.9,94,0.00,CLR,,0.02,WeatherDisplay:10.37,2013-05-10 08:03:00,
2013-05-10 03:04:00,34.9,33.6,28.76,NNE,22,8.1,8.1,95,0.00,CLR,,0.02,WeatherDisplay:10.37,2013-05-10 08:04:00,
2013-05-10 03:05:00,34.9,33.6,28.76,NE,45,8.1,8.1,95,0.00,CLR,,0.02,WeatherDisplay:10.37,2013-05-10 08:05:00,
2013-05-10 03:08:00,34.9,33.6,28.76,North,0,6.0,6.0,95,0.00,CLR,,0.02,WeatherDisplay:10.37,2013-05-10 08:08:00,
2013-05-10 03:09:00,34.9,33.6,28.76,NNE,22,5.8,5.8,95,0.00,CLR,,0.02,WeatherDisplay:10.37,2013-05-10 08:09:00,
2013-05-10 03:10:00,34.7,33.4,28.73,NNE,22,7.4,7.4,95,0.00,CLR,,0.02,WeatherDisplay:10.37,2013-05-10 08:10:00,
2013-05-10 03:11:00,34.7,33.4,28.73,NNE,22,8.1,8.1,95,0.00,CLR,,0.02,WeatherDisplay:10.37,2013-05-10 08:11:00,
2013-05-10 03:13:00,34.5,33.0,28.73,North,0,8.1,8.1,94,0.00,CLR,,0.02,WeatherDisplay:10.37,2013-05-10 08:13:00,
2013-05-10 03:14:00,34.5,33.0,28.73,NNW,338,6.9,6.9,94,0.00,CLR,,0.02,WeatherDisplay:10.37,2013-05-10 08:14:00,
2013-05-10 03:15:00,34.5,33.0,28.73,North,0,6.4,6.4,94,0.00,CLR,,0.02,WeatherDisplay:10.37,2013-05-10 08:15:00,
2013-05-10 03:16:00,34.5,33.0,28.73,NNW,338,8.5,8.5,94,0.00,CLR,,0.02,WeatherDisplay:10.37,2013-05-10 08:16:00,
2013-05-10 03:18:00,34.5,33.0,28.73,North,0,7.6,7.6,94,0.00,CLR,,0.02,WeatherDisplay:10.37,2013-05-10 08:18:00,
2013-05-10 03:19:00,34.5,33.0,28.73,NNE,22,10.4,10.4,94,0.00,CLR,,0.02,WeatherDisplay:10.37,2013-05-10 08:19:00,
2013-05-10 03:21:00,34.5,33.0,28.73,North,0,8.1,8.1,94,0.00,CLR,,0.02,WeatherDisplay:10.37,2013-05-10 08:21:00,
2013-05-10 03:22:00,34.3,32.8,28.73,North,0,6.9,6.9,94,0.00,CLR,,0.02,WeatherDisplay:10.37,2013-05-10 08:22:00,
2013-05-10 03:24:00,34.3,32.8,28.73,NE,45,5.8,5.8,94,0.00,CLR,,0.02,WeatherDisplay:10.37,2013-05-10 08:24:00,
2013-05-10 03:25:00,34.3,32.8,28.74,NNE,20,5.0,8.0,94,0.00,CLR,,0.02,WeatherDisplay:10.37,2013-05-10 08:25:00,
2013-05-10 03:26:00,34.3,33.1,28.76,NW,315,5.9,5.9,95,0.00,CLR,,0.02,WeatherDisplay:10.37,2013-05-10 08:26:00,
2013-05-10 03:27:00,34.3,33.1,28.76,NE,45,8.1,8.1,95,0.00,CLR,,0.02,WeatherDisplay:10.37,2013-05-10 08:27:00,
2013-05-10 03:29:00,34.3,33.1,28.76,NE,45,8.5,8.5,95,0.00,CLR,,0.02,WeatherDisplay:10.37,2013-05-10 08:29:00,
2013-05-10 03:30:00,34.3,33.1,28.76,North,0,8.1,8.1,95,0.00,CLR,,0.02,WeatherDisplay:10.37,2013-05-10 08:30:00,
2013-05-10 03:31:00,34.3,33.1,28.76,NE,45,5.8,5.8,95,0.00,CLR,,0.02,WeatherDisplay:10.37,2013-05-10 08:31:00,
2013-05-10 03:32:00,34.3,33.1,28.76,NNE,22,5.8,5.8,95,0.00,CLR,,0.02,WeatherDisplay:10.37,2013-05-10 08:32:00,
2013-05-10 03:33:00,34.2,32.9,28.76,NNE,22,5.8,5.8,95,0.00,CLR,,0.02,WeatherDisplay:10.37,2013-05-10 08:33:00,
2013-05-10 03:34:00,34.2,32.9,28.76,NE,45,10.4,10.4,95,0.00,CLR,,0.02,WeatherDisplay:10.37,2013-05-10 08:34:00,
2013-05-10 03:35:00,34.2,32.9,28.76,NE,45,10.4,10.4,95,0.00,CLR,,0.02,WeatherDisplay:10.37,2013-05-10 08:35:00,
2013-05-10 03:36:00,34.2,32.9,28.76,NNE,22,5.8,5.8,95,0.00,CLR,,0.02,WeatherDisplay:10.37,2013-05-10 08:36:00,
2013-05-10 03:38:00,34.2,32.9,28.76,North,0,8.1,8.1,95,0.00,CLR,,0.02,WeatherDisplay:10.37,2013-05-10 08:38:00,
2013-05-10 03:40:00,34.2,32.9,28.76,NNE,32,5.0,8.0,95,0.00,CLR,,0.02,WeatherDisplay:10.37,2013-05-10 08:40:00,
2013-05-10 03:41:00,34.2,32.9,28.76,NNE,22,7.6,7.6,95,0.00,CLR,,0.02,WeatherDisplay:10.37,2013-05-10 08:41:00,
2013-05-10 03:42:00,34.2,32.9,28.76,North,0,8.1,8.1,95,0.00,CLR,,0.02,WeatherDisplay:10.37,2013-05-10 08:42:00,
2013-05-10 03:44:00,34.2,32.9,28.76,ENE,68,7.6,7.6,95,0.00,CLR,,0.02,WeatherDisplay:10.37,2013-05-10 08:44:00,
2013-05-10 03:45:00,34.0,32.7,28.76,NE,45,8.1,8.1,95,0.00,CLR,,0.02,WeatherDisplay:10.37,2013-05-10 08:45:00,
2013-05-10 03:47:00,34.0,32.7,28.76,NNE,22,10.4,10.4,95,0.00,CLR,,0.02,WeatherDisplay:10.37,2013-05-10 08:47:00,
2013-05-10 03:49:00,34.0,32.7,28.76,North,0,5.8,5.8,95,0.00,CLR,,0.02,WeatherDisplay:10.37,2013-05-10 08:49:00,
2013-05-10 03:50:00,34.0,32.7,28.76,NNE,22,4.6,4.6,95,0.00,CLR,,0.02,WeatherDisplay:10.37,2013-05-10 08:50:00,
2013-05-10 03:52:00,34.0,33.0,28.76,NNE,22,8.1,8.1,96,0.00,CLR,,0.02,WeatherDisplay:10.37,2013-05-10 08:52:00,
2013-05-10 03:54:00,34.0,33.0,28.76,NNE,22,7.8,7.8,96,0.00,CLR,,0.02,WeatherDisplay:10.37,2013-05-10 08:54:00,
2013-05-10 03:56:00,33.8,32.8,28.76,WNW,292,9.2,9.2,96,0.00,CLR,,0.02,WeatherDisplay:10.37,2013-05-10 08:56:00,
2013-05-10 03:58:00,33.8,32.8,28.76,NNE,22,11.5,11.5,96,0.00,CLR,,0.02,WeatherDisplay:10.37,2013-05-10 08:58:00,
2013-05-10 03:59:00,33.8,32.8,28.76,North,0,8.1,8.1,96,0.00,CLR,,0.02,WeatherDisplay:10.37,2013-05-10 08:59:00,
2013-05-10 04:00:00,33.8,32.8,28.76,NNE,22,8.1,8.1,96,0.00,CLR,,0.02,WeatherDisplay:10.37,2013-05-10 09:00:00,
2013-05-10 04:01:00,33.8,32.8,28.76,NNE,22,9.2,9.2,96,0.00,CLR,,0.02,WeatherDisplay:10.37,2013-05-10 09:01:00,
2013-05-10 04:03:00,33.6,32.3,28.76,NNE,22,6.9,6.9,95,0.00,CLR,,0.02,WeatherDisplay:10.37,2013-05-10 09:03:00,
2013-05-10 04:04:00,33.6,32.3,28.76,NNE,22,8.1,8.1,95,0.00,CLR,,0.02,WeatherDisplay:10.37,2013-05-10 09:04:00,
2013-05-10 04:05:00,33.6,32.3,28.76,NE,45,5.9,6.0,95,0.00,CLR,,0.02,WeatherDisplay:10.37,2013-05-10 09:05:00,
2013-05-10 04:06:00,33.4,32.2,28.76,NNE,22,10.4,10.4,95,0.00,CLR,,0.02,WeatherDisplay:10.37,2013-05-10 09:06:00,
2013-05-10 04:08:00,33.4,32.2,28.76,North,0,10.4,10.4,95,0.00,CLR,,0.02,WeatherDisplay:10.37,2013-05-10 09:08:00,
2013-05-10 04:10:00,33.4,32.2,28.76,North,0,9.2,9.2,95,0.00,CLR,,0.02,WeatherDisplay:10.37,2013-05-10 09:10:00,
2013-05-10 04:11:00,33.4,32.2,28.76,NNW,338,8.1,8.1,95,0.00,CLR,,0.02,WeatherDisplay:10.37,2013-05-10 09:11:00,
2013-05-10 04:13:00,33.4,32.2,28.76,NW,315,5.8,5.8,95,0.00,CLR,,0.02,WeatherDisplay:10.37,2013-05-10 09:13:00,
2013-05-10 04:15:00,33.4,32.2,28.76,North,0,7.4,7.4,95,0.00,CLR,,0.02,WeatherDisplay:10.37,2013-05-10 09:15:00,
2013-05-10 04:16:00,33.4,32.2,28.76,NNW,338,12.7,12.7,95,0.00,CLR,,0.02,WeatherDisplay:10.37,2013-05-10 09:16:00,
2013-05-10 04:17:00,33.4,32.4,28.76,North,0,8.1,8.1,96,0.00,CLR,,0.02,WeatherDisplay:10.37,2013-05-10 09:17:00,
2013-05-10 04:18:00,33.4,32.4,28.76,NW,315,8.1,8.1,96,0.00,CLR,,0.02,WeatherDisplay:10.37,2013-05-10 09:18:00,
2013-05-10 04:20:00,33.4,32.4,28.76,NNE,22,8.1,8.1,96,0.00,CLR,,0.02,WeatherDisplay:10.37,2013-05-10 09:20:00,
2013-05-10 04:21:00,33.4,32.4,28.76,North,0,8.1,8.1,96,0.00,CLR,,0.02,WeatherDisplay:10.37,2013-05-10 09:21:00,
2013-05-10 04:22:00,33.4,32.4,28.76,North,0,8.1,8.1,96,0.00,CLR,,0.02,WeatherDisplay:10.37,2013-05-10 09:22:00,
2013-05-10 04:23:00,33.3,32.2,28.76,NNE,22,6.9,6.9,96,0.00,CLR,,0.02,WeatherDisplay:10.37,2013-05-10 09:23:00,
2013-05-10 04:25:00,33.3,32.2,28.76,NNE,22,5.8,5.8,96,0.00,CLR,,0.02,WeatherDisplay:10.37,2013-05-10 09:25:00,
2013-05-10 04:26:00,33.3,32.2,28.76,North,0,5.9,5.9,96,0.00,CLR,,0.02,WeatherDisplay:10.37,2013-05-10 09:26:00,
2013-05-10 04:27:00,33.3,32.2,28.76,North,0,9.2,9.2,96,0.00,CLR,,0.02,WeatherDisplay:10.37,2013-05-10 09:27:00,
2013-05-10 04:28:00,33.3,32.2,28.76,North,0,9.2,9.2,96,0.00,CLR,,0.02,WeatherDisplay:10.37,2013-05-10 09:28:00,
2013-05-10 04:29:00,33.3,32.2,28.76,North,0,8.1,8.1,96,0.00,CLR,,0.02,WeatherDisplay:10.37,2013-05-10 09:29:00,
2013-05-10 04:30:00,33.3,32.2,28.76,North,0,5.8,5.8,96,0.00,CLR,,0.02,WeatherDisplay:10.37,2013-05-10 09:30:00,
2013-05-10 04:31:00,33.3,32.2,28.76,NNE,22,8.1,8.1,96,0.00,CLR,,0.02,WeatherDisplay:10.37,2013-05-10 09:31:00,
2013-05-10 04:33:00,33.3,32.5,28.76,North,0,9.4,9.4,97,0.00,CLR,,0.02,WeatherDisplay:10.37,2013-05-10 09:33:00,
2013-05-10 04:34:00,33.1,32.3,28.76,NNW,338,9.2,9.2,97,0.00,CLR,,0.02,WeatherDisplay:10.37,2013-05-10 09:34:00,
2013-05-10 04:36:00,32.9,32.1,28.76,NNE,22,12.7,12.7,97,0.00,CLR,,0.02,WeatherDisplay:10.37,2013-05-10 09:36:00,
2013-05-10 04:38:00,32.9,31.9,28.76,NW,315,6.9,6.9,96,0.00,CLR,,0.02,WeatherDisplay:10.37,2013-05-10 09:38:00,
2013-05-10 04:39:00,32.9,32.1,28.76,North,0,11.5,11.5,97,0.00,CLR,,0.02,WeatherDisplay:10.37,2013-05-10 09:39:00,
2013-05-10 04:42:00,32.7,32.0,28.76,NNW,338,10.7,10.7,97,0.00,CLR,,0.02,WeatherDisplay:10.37,2013-05-10 09:42:00,
2013-05-10 04:43:00,32.7,31.7,28.76,NE,45,11.5,11.5,96,0.01,RA,,0.04,WeatherDisplay:10.37,2013-05-10 09:43:00,
2013-05-10 04:44:00,32.7,31.7,28.76,NE,45,9.2,9.2,96,0.01,RA,,0.04,WeatherDisplay:10.37,2013-05-10 09:44:00,
2013-05-10 04:47:00,32.7,31.7,28.76,NNE,22,8.1,8.1,96,0.01,RA,,0.04,WeatherDisplay:10.37,2013-05-10 09:47:00,
2013-05-10 04:49:00,32.7,31.7,28.76,NE,45,9.2,9.2,96,0.01,RA,,0.04,WeatherDisplay:10.37,2013-05-10 09:49:00,
2013-05-10 04:50:00,32.7,31.7,28.76,North,0,9.2,9.2,96,0.01,RA,,0.04,WeatherDisplay:10.37,2013-05-10 09:50:00,
2013-05-10 04:52:00,32.7,31.7,28.76,North,0,11.5,11.5,96,0.01,RA,,0.04,WeatherDisplay:10.37,2013-05-10 09:52:00,
2013-05-10 04:54:00,32.7,32.0,28.76,North,0,4.7,4.7,97,0.01,,,0.04,WeatherDisplay:10.37,2013-05-10 09:54:00,
2013-05-10 04:55:00,32.7,32.0,28.76,North,0,6.9,6.9,97,0.01,CLR,,0.04,WeatherDisplay:10.37,2013-05-10 09:55:00,
2013-05-10 04:57:00,32.7,32.0,28.76,NNE,22,9.2,9.2,97,0.01,CLR,,0.04,WeatherDisplay:10.37,2013-05-10 09:57:00,
2013-05-10 05:00:00,32.7,32.0,28.76,NNW,338,6.9,6.9,97,0.01,CLR,,0.04,WeatherDisplay:10.37,2013-05-10 10:00:00,
2013-05-10 05:01:00,32.7,32.0,28.76,North,0,10.4,10.4,97,0.01,CLR,,0.04,WeatherDisplay:10.37,2013-05-10 10:01:00,
2013-05-10 05:03:00,32.5,31.8,28.76,NNE,22,12.3,12.3,97,0.01,CLR,,0.04,WeatherDisplay:10.37,2013-05-10 10:03:00,
2013-05-10 05:06:00,32.5,31.8,28.76,North,0,8.1,8.1,97,0.01,CLR,,0.04,WeatherDisplay:10.37,2013-05-10 10:06:00,
2013-05-10 05:08:00,32.5,31.8,28.76,NNE,22,8.1,8.1,97,0.01,CLR,,0.04,WeatherDisplay:10.37,2013-05-10 10:08:00,
2013-05-10 05:11:00,32.5,31.8,28.76,North,0,8.1,8.1,97,0.01,CLR,,0.04,WeatherDisplay:10.37,2013-05-10 10:11:00,
2013-05-10 05:12:00,32.5,31.8,28.76,North,0,6.4,6.4,97,0.01,CLR,,0.04,WeatherDisplay:10.37,2013-05-10 10:12:00,
2013-05-10 05:13:00,32.5,31.8,28.76,NNE,22,9.2,9.2,97,0.01,CLR,,0.04,WeatherDisplay:10.37,2013-05-10 10:13:00,
2013-05-10 05:16:00,32.4,31.6,28.76,NNE,22,5.8,5.8,97,0.01,CLR,,0.04,WeatherDisplay:10.37,2013-05-10 10:16:00,
2013-05-10 05:17:00,32.4,31.6,28.76,NW,315,4.6,4.6,97,0.01,CLR,,0.04,WeatherDisplay:10.37,2013-05-10 10:17:00,
2013-05-10 05:18:00,32.4,31.6,28.76,NNW,338,5.9,5.9,97,0.01,CLR,,0.04,WeatherDisplay:10.37,2013-05-10 10:18:00,
2013-05-10 05:21:00,32.2,31.4,28.76,NNE,22,10.4,10.4,97,0.01,CLR,,0.04,WeatherDisplay:10.37,2013-05-10 10:21:00,
2013-05-10 05:22:00,32.2,31.4,28.76,NNW,338,8.1,8.1,97,0.01,CLR,,0.04,WeatherDisplay:10.37,2013-05-10 10:22:00,
2013-05-10 05:23:00,32.2,31.4,28.76,NNW,338,8.1,8.1,97,0.01,CLR,,0.04,WeatherDisplay:10.37,2013-05-10 10:23:00,
2013-05-10 05:25:00,32.0,31.2,28.76,NNE,22,10.4,10.4,97,0.01,CLR,,0.04,WeatherDisplay:10.37,2013-05-10 10:25:00,
2013-05-10 05:27:00,32.0,31.2,28.76,NNE,22,8.5,8.5,97,0.01,CLR,,0.04,WeatherDisplay:10.37,2013-05-10 10:27:00,
2013-05-10 05:28:00,32.0,31.2,28.76,North,0,8.1,8.1,97,0.01,CLR,,0.04,WeatherDisplay:10.37,2013-05-10 10:28:00,
2013-05-10 05:29:00,32.0,31.2,28.76,NNE,22,4.6,4.7,97,0.01,CLR,,0.04,WeatherDisplay:10.37,2013-05-10 10:29:00,
2013-05-10 05:31:00,32.0,31.2,28.76,WNW,292,8.1,8.1,97,0.01,CLR,,0.04,WeatherDisplay:10.37,2013-05-10 10:31:00,
2013-05-10 05:32:00,32.0,31.2,28.76,North,0,8.1,8.1,97,0.01,CLR,,0.04,WeatherDisplay:10.37,2013-05-10 10:32:00,
2013-05-10 05:33:00,31.8,31.1,28.76,North,0,8.1,8.1,97,0.01,CLR,,0.04,WeatherDisplay:10.37,2013-05-10 10:33:00,
2013-05-10 05:34:00,31.8,31.1,28.76,North,0,10.4,10.4,97,0.01,CLR,,0.04,WeatherDisplay:10.37,2013-05-10 10:34:00,
2013-05-10 05:36:00,31.8,31.3,28.76,NW,315,8.1,8.1,98,0.01,CLR,,0.04,WeatherDisplay:10.37,2013-05-10 10:36:00,
2013-05-10 05:37:00,31.8,31.3,28.76,NNE,22,6.9,6.9,98,0.01,CLR,,0.04,WeatherDisplay:10.37,2013-05-10 10:37:00,
2013-05-10 05:38:00,31.8,31.3,28.76,North,0,5.8,5.8,98,0.01,CLR,,0.04,WeatherDisplay:10.37,2013-05-10 10:38:00,
2013-05-10 05:39:00,31.8,31.3,28.76,NW,315,6.0,6.0,98,0.01,CLR,,0.04,WeatherDisplay:10.37,2013-05-10 10:39:00,
2013-05-10 05:40:00,31.8,31.3,28.79,NNW,338,10.4,10.4,98,0.01,CLR,,0.05,WeatherDisplay:10.37,2013-05-10 10:40:00,
2013-05-10 05:41:00,31.8,31.3,28.79,NNW,338,11.5,11.5,98,0.02,RA,,0.05,WeatherDisplay:10.37,2013-05-10 10:41:00,
2013-05-10 05:43:00,31.6,31.1,28.79,NNE,22,6.9,6.9,98,0.01,RA,,0.05,WeatherDisplay:10.37,2013-05-10 10:43:00,
2013-05-10 05:45:00,31.6,31.1,28.79,North,0,5.9,5.9,98,0.01,RA,,0.05,WeatherDisplay:10.37,2013-05-10 10:45:00,
2013-05-10 05:46:00,31.6,31.1,28.79,NNE,22,5.8,5.8,98,0.01,RA,,0.05,WeatherDisplay:10.37,2013-05-10 10:46:00,
2013-05-10 05:48:00,31.6,31.1,28.79,North,0,5.8,5.8,98,0.01,RA,,0.05,WeatherDisplay:10.37,2013-05-10 10:48:00,
2013-05-10 05:49:00,31.6,31.1,28.79,NE,45,8.1,8.1,98,0.01,RA,,0.05,WeatherDisplay:10.37,2013-05-10 10:49:00,
2013-05-10 05:50:00,31.6,31.1,28.79,NNW,338,8.1,8.1,98,0.01,RA,,0.05,WeatherDisplay:10.37,2013-05-10 10:50:00,
2013-05-10 05:51:00,31.6,31.1,28.79,NNW,338,10.5,10.5,98,0.01,,,0.05,WeatherDisplay:10.37,2013-05-10 10:51:00,
2013-05-10 05:52:00,31.6,31.1,28.79,NE,45,10.4,10.4,98,0.01,,,0.05,WeatherDisplay:10.37,2013-05-10 10:52:00,
2013-05-10 05:53:00,31.6,31.1,28.79,North,0,6.9,6.9,98,0.01,CLR,,0.05,WeatherDisplay:10.37,2013-05-10 10:53:00,
2013-05-10 05:54:00,31.6,31.1,28.79,WNW,292,6.4,6.4,98,0.01,CLR,,0.05,WeatherDisplay:10.37,2013-05-10 10:54:00,
2013-05-10 05:56:00,31.6,31.1,28.79,North,0,7.1,7.1,98,0.01,CLR,,0.05,WeatherDisplay:10.37,2013-05-10 10:56:00,
2013-05-10 05:57:00,31.6,31.1,28.79,NNE,22,6.9,6.9,98,0.01,CLR,,0.05,WeatherDisplay:10.37,2013-05-10 10:57:00,
2013-05-10 05:58:00,31.8,31.3,28.79,North,0,5.4,5.4,98,0.01,CLR,,0.05,WeatherDisplay:10.37,2013-05-10 10:58:00,
2013-05-10 05:59:00,31.8,31.3,28.79,NE,45,10.4,10.4,98,0.01,CLR,,0.05,WeatherDisplay:10.37,2013-05-10 10:59:00,
2013-05-10 06:01:00,31.6,31.1,28.79,North,0,9.2,9.2,98,0.01,CLR,,0.05,WeatherDisplay:10.37,2013-05-10 11:01:00,
2013-05-10 06:02:00,31.8,31.3,28.79,North,0,9.2,9.2,98,0.01,CLR,,0.05,WeatherDisplay:10.37,2013-05-10 11:02:00,
2013-05-10 06:04:00,31.8,31.3,28.79,North,0,4.0,4.0,98,0.01,CLR,,0.05,WeatherDisplay:10.37,2013-05-10 11:04:00,
2013-05-10 06:05:00,31.8,31.3,28.79,North,354,2.0,9.0,98,0.00,CLR,,0.05,WeatherDisplay:10.37,2013-05-10 11:05:00,
2013-05-10 06:06:00,31.8,31.3,28.79,NNW,338,6.9,6.9,98,0.01,CLR,,0.05,WeatherDisplay:10.37,2013-05-10 11:06:00,
2013-05-10 06:07:00,31.8,31.3,28.79,NW,315,6.9,6.9,98,0.01,CLR,,0.05,WeatherDisplay:10.37,2013-05-10 11:07:00,
2013-05-10 06:09:00,31.8,31.3,28.79,NW,315,5.8,5.8,98,0.01,CLR,,0.05,WeatherDisplay:10.37,2013-05-10 11:09:00,
2013-05-10 06:10:00,31.8,31.3,28.79,NW,315,7.6,7.6,98,0.01,CLR,,0.05,WeatherDisplay:10.37,2013-05-10 11:10:00,
2013-05-10 06:12:00,31.8,31.3,28.79,NW,315,9.2,9.2,98,0.01,CLR,,0.05,WeatherDisplay:10.37,2013-05-10 11:12:00,
2013-05-10 06:14:00,31.8,31.3,28.79,NNE,22,6.9,6.9,98,0.01,CLR,,0.05,WeatherDisplay:10.37,2013-05-10 11:14:00,
2013-05-10 06:16:00,31.8,31.3,28.79,North,0,6.9,6.9,98,0.01,CLR,,0.05,WeatherDisplay:10.37,2013-05-10 11:16:00,
2013-05-10 06:17:00,31.8,31.3,28.79,North,0,9.2,9.2,98,0.01,CLR,,0.05,WeatherDisplay:10.37,2013-05-10 11:17:00,
2013-05-10 06:18:00,31.8,31.3,28.79,North,0,8.1,8.1,98,0.01,CLR,,0.05,WeatherDisplay:10.37,2013-05-10 11:18:00,
2013-05-10 06:19:00,31.8,31.3,28.79,NNW,338,8.1,8.1,98,0.01,CLR,,0.05,WeatherDisplay:10.37,2013-05-10 11:19:00,
2013-05-10 06:20:00,31.8,31.3,28.79,North,352,3.0,10.0,98,0.00,CLR,,0.05,WeatherDisplay:10.37,2013-05-10 11:20:00,
2013-05-10 06:21:00,31.8,31.3,28.79,NNE,22,6.9,6.9,98,0.01,CLR,,0.05,WeatherDisplay:10.37,2013-05-10 11:21:00,
2013-05-10 06:23:00,31.8,31.3,28.79,NE,45,4.6,4.6,98,0.01,CLR,,0.05,WeatherDisplay:10.37,2013-05-10 11:23:00,
2013-05-10 06:24:00,31.8,31.3,28.79,North,0,4.6,4.6,98,0.01,CLR,,0.05,WeatherDisplay:10.37,2013-05-10 11:24:00,
2013-05-10 06:25:00,31.8,31.3,28.78,North,5,3.0,9.0,98,0.00,CLR,,0.05,WeatherDisplay:10.37,2013-05-10 11:25:00,
2013-05-10 06:26:00,31.8,31.3,28.76,NNE,22,9.2,9.2,98,0.01,CLR,,0.05,WeatherDisplay:10.37,2013-05-10 11:26:00,
2013-05-10 06:29:00,31.8,31.3,28.76,North,0,6.9,6.9,98,0.01,CLR,,0.05,WeatherDisplay:10.37,2013-05-10 11:29:00,
2013-05-10 06:30:00,31.6,31.1,28.76,NNW,338,8.1,8.1,98,0.01,CLR,,0.05,WeatherDisplay:10.37,2013-05-10 11:30:00,
2013-05-10 06:31:00,31.6,31.1,28.76,North,0,8.1,8.1,98,0.01,CLR,,0.05,WeatherDisplay:10.37,2013-05-10 11:31:00,
2013-05-10 06:34:00,31.5,30.7,28.76,NNW,338,8.1,8.1,97,0.01,CLR,,0.05,WeatherDisplay:10.37,2013-05-10 11:34:00,
2013-05-10 06:35:00,31.5,30.7,28.76,North,0,8.1,8.1,97,0.01,CLR,,0.05,WeatherDisplay:10.37,2013-05-10 11:35:00,
2013-05-10 06:36:00,31.5,30.7,28.76,North,0,7.6,7.6,97,0.01,CLR,,0.05,WeatherDisplay:10.37,2013-05-10 11:36:00,
2013-05-10 06:39:00,31.5,30.7,28.76,NNW,338,9.7,9.7,97,0.01,CLR,,0.05,WeatherDisplay:10.37,2013-05-10 11:39:00,
2013-05-10 06:40:00,31.5,30.7,28.76,NE,45,9.2,9.2,97,0.01,CLR,,0.05,WeatherDisplay:10.37,2013-05-10 11:40:00,
2013-05-10 06:41:00,31.5,30.7,28.76,North,0,8.1,8.1,97,0.00,CLR,,0.05,WeatherDisplay:10.37,2013-05-10 11:41:00,
2013-05-10 06:42:00,31.5,30.7,28.76,NW,315,8.1,8.1,97,0.00,CLR,,0.05,WeatherDisplay:10.37,2013-05-10 11:42:00,
2013-05-10 06:44:00,31.5,30.7,28.76,NE,45,5.9,5.9,97,0.00,CLR,,0.05,WeatherDisplay:10.37,2013-05-10 11:44:00,
2013-05-10 06:45:00,31.5,30.7,28.76,NNE,22,7.8,7.8,97,0.00,CLR,,0.05,WeatherDisplay:10.37,2013-05-10 11:45:00,
2013-05-10 06:46:00,31.5,30.7,28.76,North,0,8.1,8.1,97,0.00,CLR,,0.05,WeatherDisplay:10.37,2013-05-10 11:46:00,
2013-05-10 06:48:00,31.5,30.7,28.76,NNE,22,5.8,5.8,97,0.00,CLR,,0.05,WeatherDisplay:10.37,2013-05-10 11:48:00,
2013-05-10 06:50:00,31.5,30.7,28.76,North,0,6.4,6.4,97,0.00,CLR,,0.05,WeatherDisplay:10.37,2013-05-10 11:50:00,
2013-05-10 06:52:00,31.5,30.7,28.76,North,0,6.9,6.9,97,0.00,CLR,,0.05,WeatherDisplay:10.37,2013-05-10 11:52:00,
2013-05-10 06:53:00,31.5,30.7,28.76,North,0,6.2,6.2,97,0.00,CLR,,0.05,WeatherDisplay:10.37,2013-05-10 11:53:00,
2013-05-10 06:55:00,31.5,30.7,28.79,NNE,22,8.1,8.1,97,0.00,CLR,,0.05,WeatherDisplay:10.37,2013-05-10 11:55:00,
2013-05-10 06:57:00,31.5,30.5,28.79,NNE,22,10.4,10.4,96,0.00,CLR,,0.05,WeatherDisplay:10.37,2013-05-10 11:57:00,
2013-05-10 06:59:00,31.5,30.5,28.79,NE,45,5.8,5.8,96,0.00,CLR,,0.05,WeatherDisplay:10.37,2013-05-10 11:59:00,
2013-05-10 07:01:00,31.5,30.5,28.79,North,0,4.6,4.6,96,0.00,CLR,,0.05,WeatherDisplay:10.37,2013-05-10 12:01:00,
2013-05-10 07:02:00,31.5,30.5,28.79,North,0,5.8,5.8,96,0.00,CLR,,0.05,WeatherDisplay:10.37,2013-05-10 12:02:00,
2013-05-10 07:03:00,31.5,30.5,28.79,North,0,5.8,5.8,96,0.00,CLR,,0.05,WeatherDisplay:10.37,2013-05-10 12:03:00,
2013-05-10 07:04:00,31.5,30.5,28.79,NE,45,5.9,5.9,96,0.00,CLR,,0.05,WeatherDisplay:10.37,2013-05-10 12:04:00,
2013-05-10 07:06:00,31.5,30.5,28.79,NNE,22,6.9,6.9,96,0.00,CLR,,0.05,WeatherDisplay:10.37,2013-05-10 12:06:00,
2013-05-10 07:07:00,31.5,30.5,28.79,NW,315,5.8,5.8,96,0.00,CLR,,0.05,WeatherDisplay:10.37,2013-05-10 12:07:00,
2013-05-10 07:08:00,31.5,30.5,28.79,NW,315,4.9,4.9,96,0.00,CLR,,0.05,WeatherDisplay:10.37,2013-05-10 12:08:00,
2013-05-10 07:10:00,31.5,30.5,28.76,North,0,4.6,4.6,96,0.00,CLR,,0.05,WeatherDisplay:10.37,2013-05-10 12:10:00,
2013-05-10 07:11:00,31.5,30.5,28.76,North,0,5.4,5.4,96,0.00,CLR,,0.05,WeatherDisplay:10.37,2013-05-10 12:11:00,
2013-05-10 07:13:00,31.5,30.5,28.76,NNW,338,4.9,5.9,96,0.00,CLR,,0.05,WeatherDisplay:10.37,2013-05-10 12:13:00,
2013-05-10 07:15:00,31.5,30.5,28.76,North,0,8.1,8.1,96,0.00,CLR,,0.05,WeatherDisplay:10.37,2013-05-10 12:15:00,
2013-05-10 07:16:00,31.5,30.5,28.76,North,0,8.5,8.5,96,0.00,CLR,,0.05,WeatherDisplay:10.37,2013-05-10 12:16:00,
2013-05-10 07:19:00,31.5,30.5,28.76,North,0,8.1,8.1,96,0.00,CLR,,0.05,WeatherDisplay:10.37,2013-05-10 12:19:00,
2013-05-10 07:20:00,31.5,30.2,28.76,NNE,22,8.1,8.1,95,0.00,CLR,,0.05,WeatherDisplay:10.37,2013-05-10 12:20:00,
2013-05-10 07:21:00,31.5,30.2,28.76,NNW,338,5.8,5.8,95,0.00,CLR,,0.05,WeatherDisplay:10.37,2013-05-10 12:21:00,
2013-05-10 07:22:00,31.5,30.2,28.76,NE,45,5.8,5.8,95,0.00,CLR,,0.05,WeatherDisplay:10.37,2013-05-10 12:22:00,
2013-05-10 07:24:00,31.5,30.2,28.79,NNE,22,6.2,6.2,95,0.00,CLR,,0.05,WeatherDisplay:10.37,2013-05-10 12:24:00,
2013-05-10 07:25:00,31.5,30.2,28.79,NNE,22,9.2,9.2,95,0.00,CLR,,0.05,WeatherDisplay:10.37,2013-05-10 12:25:00,
2013-05-10 07:26:00,31.3,29.8,28.79,NE,45,9.2,9.2,94,0.00,CLR,,0.05,WeatherDisplay:10.37,2013-05-10 12:26:00,
2013-05-10 07:28:00,31.5,29.9,28.79,North,0,8.1,8.1,94,0.00,CLR,,0.05,WeatherDisplay:10.37,2013-05-10 12:28:00,
2013-05-10 07:30:00,31.5,29.9,28.79,NNE,22,5.8,5.8,94,0.00,CLR,,0.05,WeatherDisplay:10.37,2013-05-10 12:30:00,
2013-05-10 07:31:00,31.5,29.9,28.79,NNE,22,6.9,6.9,94,0.00,CLR,,0.05,WeatherDisplay:10.37,2013-05-10 12:31:00,
2013-05-10 07:32:00,31.5,29.9,28.79,North,0,6.9,6.9,94,0.00,CLR,,0.05,WeatherDisplay:10.37,2013-05-10 12:32:00,
2013-05-10 07:33:00,31.5,29.9,28.79,NNE,22,8.1,8.1,94,0.00,CLR,,0.05,WeatherDisplay:10.37,2013-05-10 12:33:00,
2013-05-10 07:36:00,31.5,29.9,28.79,North,0,8.1,8.1,94,0.00,CLR,,0.05,WeatherDisplay:10.37,2013-05-10 12:36:00,
2013-05-10 07:37:00,31.6,30.1,28.79,NNE,22,8.5,8.5,94,0.00,CLR,,0.05,WeatherDisplay:10.37,2013-05-10 12:37:00,
2013-05-10 07:38:00,31.6,30.4,28.79,NW,315,8.1,8.1,95,0.00,CLR,,0.05,WeatherDisplay:10.37,2013-05-10 12:38:00,
2013-05-10 07:41:00,31.6,30.4,28.79,North,0,5.8,5.8,95,0.00,CLR,,0.05,WeatherDisplay:10.37,2013-05-10 12:41:00,
2013-05-10 07:42:00,31.6,30.4,28.79,NNW,338,6.7,6.7,95,0.00,CLR,,0.05,WeatherDisplay:10.37,2013-05-10 12:42:00,
2013-05-10 07:44:00,31.8,30.6,28.79,NW,315,5.8,5.8,95,0.00,CLR,,0.05,WeatherDisplay:10.37,2013-05-10 12:44:00,
2013-05-10 07:46:00,31.8,30.6,28.79,NNE,22,6.9,6.9,95,0.00,CLR,,0.05,WeatherDisplay:10.37,2013-05-10 12:46:00,
2013-05-10 07:47:00,31.8,30.6,28.79,NNE,22,5.8,5.8,95,0.00,CLR,,0.05,WeatherDisplay:10.37,2013-05-10 12:47:00,
2013-05-10 07:50:00,31.8,30.6,28.79,North,6,5.0,8.0,95,0.00,CLR,,0.05,WeatherDisplay:10.37,2013-05-10 12:50:00,
2013-05-10 07:51:00,31.8,30.6,28.79,NW,315,8.1,8.1,95,0.00,CLR,,0.05,WeatherDisplay:10.37,2013-05-10 12:51:00,
2013-05-10 07:52:00,31.8,30.3,28.79,North,0,8.1,8.1,94,0.00,CLR,,0.05,WeatherDisplay:10.37,2013-05-10 12:52:00,
2013-05-10 07:53:00,32.0,30.5,28.79,NNE,22,5.8,5.8,94,0.00,CLR,,0.05,WeatherDisplay:10.37,2013-05-10 12:53:00,
2013-05-10 07:55:00,32.0,30.5,28.79,NE,45,5.8,5.8,94,0.00,CLR,,0.05,WeatherDisplay:10.37,2013-05-10 12:55:00,
2013-05-10 07:56:00,32.0,30.5,28.79,NE,45,4.6,4.6,94,0.00,CLR,,0.05,WeatherDisplay:10.37,2013-05-10 12:56:00,
2013-05-10 07:57:00,32.2,30.6,28.79,NE,45,7.6,7.6,94,0.00,CLR,,0.05,WeatherDisplay:10.37,2013-05-10 12:57:00,
2013-05-10 07:58:00,32.0,30.2,28.79,NNW,338,8.1,8.1,93,0.00,CLR,,0.05,WeatherDisplay:10.37,2013-05-10 12:58:00,
2013-05-10 08:00:00,32.2,30.4,28.79,NNE,22,8.1,8.1,93,0.00,CLR,,0.05,WeatherDisplay:10.37,2013-05-10 13:00:00,
2013-05-10 08:01:00,32.2,30.1,28.79,NNE,22,5.8,5.8,92,0.00,CLR,,0.05,WeatherDisplay:10.37,2013-05-10 13:01:00,
2013-05-10 08:02:00,32.2,30.1,28.79,NE,45,4.6,4.6,92,0.00,CLR,,0.05,WeatherDisplay:10.37,2013-05-10 13:02:00,
2013-05-10 08:03:00,32.4,30.3,28.79,NNE,22,4.6,4.6,92,0.00,CLR,,0.05,WeatherDisplay:10.37,2013-05-10 13:03:00,
2013-05-10 08:06:00,32.5,30.7,28.79,North,0,4.6,4.6,93,0.00,CLR,,0.05,WeatherDisplay:10.37,2013-05-10 13:06:00,
2013-05-10 08:07:00,32.5,30.7,28.79,NNE,22,4.6,4.6,93,0.00,CLR,,0.05,WeatherDisplay:10.37,2013-05-10 13:07:00,
2013-05-10 08:08:00,32.5,30.5,28.79,North,0,4.0,4.0,92,0.00,CLR,,0.05,WeatherDisplay:10.37,2013-05-10 13:08:00,
2013-05-10 08:09:00,32.5,30.5,28.79,NNE,22,4.6,4.6,92,0.00,CLR,,0.05,WeatherDisplay:10.37,2013-05-10 13:09:00,
2013-05-10 08:10:00,32.7,30.7,28.79,NNE,22,3.5,3.5,92,0.00,CLR,,0.05,WeatherDisplay:10.37,2013-05-10 13:10:00,
2013-05-10 08:12:00,32.5,30.5,28.79,NNE,22,6.0,6.0,92,0.00,CLR,,0.05,WeatherDisplay:10.37,2013-05-10 13:12:00,
2013-05-10 08:14:00,32.5,30.5,28.79,North,0,5.8,5.8,92,0.00,CLR,,0.05,WeatherDisplay:10.37,2013-05-10 13:14:00,
2013-05-10 08:16:00,32.5,30.5,28.79,NW,315,5.8,5.8,92,0.00,CLR,,0.05,WeatherDisplay:10.37,2013-05-10 13:16:00,
2013-05-10 08:17:00,32.5,30.2,28.79,NNE,22,3.8,3.8,91,0.00,CLR,,0.05,WeatherDisplay:10.37,2013-05-10 13:17:00,
2013-05-10 08:18:00,32.5,30.2,28.79,NNE,22,3.8,3.8,91,0.00,CLR,,0.05,WeatherDisplay:10.37,2013-05-10 13:18:00,
2013-05-10 08:19:00,32.5,30.2,28.79,NNE,22,6.9,6.9,91,0.00,CLR,,0.05,WeatherDisplay:10.37,2013-05-10 13:19:00,
2013-05-10 08:21:00,32.5,29.9,28.79,North,0,5.8,5.8,90,0.00,CLR,,0.05,WeatherDisplay:10.37,2013-05-10 13:21:00,
2013-05-10 08:23:00,32.7,30.1,28.79,NNE,22,5.8,5.8,90,0.00,CLR,,0.05,WeatherDisplay:10.37,2013-05-10 13:23:00,
2013-05-10 08:24:00,32.5,29.9,28.79,NNW,338,5.9,5.9,90,0.00,CLR,,0.05,WeatherDisplay:10.37,2013-05-10 13:24:00,
2013-05-10 08:26:00,32.5,29.7,28.82,NNW,338,9.2,9.2,89,0.00,CLR,,0.05,WeatherDisplay:10.37,2013-05-10 13:26:00,
2013-05-10 08:28:00,32.5,29.7,28.82,NNW,338,8.1,8.1,89,0.00,CLR,,0.05,WeatherDisplay:10.37,2013-05-10 13:28:00,
2013-05-10 08:29:00,32.5,29.7,28.82,NNW,338,5.8,5.8,89,0.00,CLR,,0.05,WeatherDisplay:10.37,2013-05-10 13:29:00,
2013-05-10 08:30:00,32.7,29.8,28.82,NNE,22,4.6,4.6,89,0.00,CLR,,0.05,WeatherDisplay:10.37,2013-05-10 13:30:00,
2013-05-10 08:31:00,32.7,29.8,28.82,North,0,4.6,4.6,89,0.00,CLR,,0.05,WeatherDisplay:10.37,2013-05-10 13:31:00,
2013-05-10 08:34:00,32.9,30.3,28.82,North,0,6.4,6.4,90,0.00,CLR,,0.05,WeatherDisplay:10.37,2013-05-10 13:34:00,
2013-05-10 08:35:00,32.9,30.3,28.82,NW,315,6.9,6.9,90,0.00,CLR,,0.05,WeatherDisplay:10.37,2013-05-10 13:35:00,
2013-05-10 08:36:00,32.7,29.8,28.82,North,0,8.1,8.1,89,0.00,CLR,,0.05,WeatherDisplay:10.37,2013-05-10 13:36:00,
2013-05-10 08:37:00,32.7,29.8,28.82,North,0,8.1,8.1,89,0.00,CLR,,0.05,WeatherDisplay:10.37,2013-05-10 13:37:00,
2013-05-10 08:39:00,32.9,30.0,28.82,North,0,5.8,5.8,89,0.00,CLR,,0.05,WeatherDisplay:10.37,2013-05-10 13:39:00,
2013-05-10 08:40:00,32.9,30.0,28.82,NE,45,5.8,5.8,89,0.00,CLR,,0.05,WeatherDisplay:10.37,2013-05-10 13:40:00,
2013-05-10 08:41:00,32.9,30.0,28.82,ENE,68,6.4,6.4,89,0.00,CLR,,0.05,WeatherDisplay:10.37,2013-05-10 13:41:00,
2013-05-10 08:42:00,33.1,30.2,28.82,NE,45,6.9,6.9,89,0.00,CLR,,0.05,WeatherDisplay:10.37,2013-05-10 13:42:00,
2013-05-10 08:44:00,33.1,30.2,28.82,NW,315,4.6,4.6,89,0.00,CLR,,0.05,WeatherDisplay:10.37,2013-05-10 13:44:00,
2013-05-10 08:45:00,33.1,30.2,28.82,NNE,22,3.6,4.0,89,0.00,CLR,,0.05,WeatherDisplay:10.37,2013-05-10 13:45:00,
2013-05-10 08:46:00,33.1,30.2,28.82,NNE,22,3.6,4.0,89,0.00,CLR,,0.05,WeatherDisplay:10.37,2013-05-10 13:46:00,
2013-05-10 08:47:00,33.3,30.4,28.82,NNE,22,5.8,5.8,89,0.00,CLR,,0.05,WeatherDisplay:10.37,2013-05-10 13:47:00,
2013-05-10 08:50:00,33.1,29.9,28.82,NE,45,7.8,7.8,88,0.00,CLR,,0.05,WeatherDisplay:10.37,2013-05-10 13:50:00,
2013-05-10 08:51:00,33.1,29.9,28.82,NE,45,10.4,10.4,88,0.00,CLR,,0.05,WeatherDisplay:10.37,2013-05-10 13:51:00,
2013-05-10 08:52:00,33.1,29.6,28.82,NNE,22,5.8,5.8,87,0.00,CLR,,0.05,WeatherDisplay:10.37,2013-05-10 13:52:00,
2013-05-10 08:54:00,33.3,29.8,28.82,North,0,4.6,4.6,87,0.00,CLR,,0.05,WeatherDisplay:10.37,2013-05-10 13:54:00,
2013-05-10 08:55:00,33.3,29.8,28.82,North,0,3.6,3.6,87,0.00,CLR,,0.05,WeatherDisplay:10.37,2013-05-10 13:55:00,
2013-05-10 08:56:00,33.3,30.1,28.82,North,0,3.5,4.0,88,0.00,CLR,,0.05,WeatherDisplay:10.37,2013-05-10 13:56:00,
2013-05-10 08:57:00,33.1,29.6,28.82,ENE,68,12.1,12.1,87,0.00,CLR,,0.05,WeatherDisplay:10.37,2013-05-10 13:57:00,
2013-05-10 09:00:00,33.1,29.6,28.82,NNE,22,6.9,6.9,87,0.00,CLR,,0.05,WeatherDisplay:10.37,2013-05-10 14:00:00,
2013-05-10 09:01:00,33.1,29.3,28.82,North,0,8.1,8.1,86,0.00,CLR,,0.05,WeatherDisplay:10.37,2013-05-10 14:01:00,
2013-05-10 09:02:00,33.1,29.3,28.82,NNE,22,5.8,5.8,86,0.00,CLR,,0.05,WeatherDisplay:10.37,2013-05-10 14:02:00,
2013-05-10 09:05:00,33.3,29.5,28.82,North,0,4.6,4.6,86,0.00,CLR,,0.05,WeatherDisplay:10.37,2013-05-10 14:05:00,
2013-05-10 09:06:00,33.3,29.8,28.82,NNE,22,4.6,4.6,87,0.00,CLR,,0.05,WeatherDisplay:10.37,2013-05-10 14:06:00,
2013-05-10 09:07:00,33.3,29.8,28.82,NW,315,5.8,5.8,87,0.00,CLR,,0.05,WeatherDisplay:10.37,2013-05-10 14:07:00,
2013-05-10 09:08:00,33.4,30.0,28.82,NNE,22,6.0,6.0,87,0.00,CLR,,0.05,WeatherDisplay:10.37,2013-05-10 14:08:00,
2013-05-10 09:10:00,33.6,30.2,28.82,North,0,6.2,6.2,87,0.00,CLR,,0.05,WeatherDisplay:10.37,2013-05-10 14:10:00,
2013-05-10 09:12:00,33.6,30.2,28.82,North,0,6.9,6.9,87,0.00,CLR,,0.05,WeatherDisplay:10.37,2013-05-10 14:12:00,
2013-05-10 09:13:00,33.6,30.2,28.82,NNE,22,8.1,8.1,87,0.00,CLR,,0.05,WeatherDisplay:10.37,2013-05-10 14:13:00,
2013-05-10 09:16:00,33.8,30.3,28.82,NNE,22,6.0,6.0,87,0.00,CLR,,0.05,WeatherDisplay:10.37,2013-05-10 14:16:00,
2013-05-10 09:17:00,33.8,30.3,28.82,NE,45,5.8,5.8,87,0.00,CLR,,0.05,WeatherDisplay:10.37,2013-05-10 14:17:00,
2013-05-10 09:18:00,33.8,30.3,28.82,North,0,5.8,5.8,87,0.00,CLR,,0.05,WeatherDisplay:10.37,2013-05-10 14:18:00,
2013-05-10 09:19:00,34.0,30.2,28.82,ENE,68,5.8,5.8,86,0.00,CLR,,0.05,WeatherDisplay:10.37,2013-05-10 14:19:00,
2013-05-10 09:21:00,34.0,30.2,28.82,NNE,22,8.1,8.1,86,0.00,CLR,,0.05,WeatherDisplay:10.37,2013-05-10 14:21:00,
2013-05-10 09:23:00,34.0,30.2,28.82,North,0,9.2,9.2,86,0.00,CLR,,0.05,WeatherDisplay:10.37,2013-05-10 14:23:00,
2013-05-10 09:24:00,34.2,30.1,28.82,NE,45,5.8,5.8,85,0.00,CLR,,0.05,WeatherDisplay:10.37,2013-05-10 14:24:00,
2013-05-10 09:25:00,34.2,30.1,28.82,NNE,27,5.0,9.0,85,0.00,CLR,,0.05,WeatherDisplay:10.37,2013-05-10 14:25:00,
2013-05-10 09:27:00,34.3,30.3,28.82,NNW,338,5.8,5.8,85,0.00,CLR,,0.05,WeatherDisplay:10.37,2013-05-10 14:27:00,
2013-05-10 09:28:00,34.3,30.3,28.82,NNW,338,8.1,8.1,85,0.00,CLR,,0.05,WeatherDisplay:10.37,2013-05-10 14:28:00,
2013-05-10 09:29:00,34.5,30.5,28.82,NE,45,5.8,5.8,85,0.00,CLR,,0.05,WeatherDisplay:10.37,2013-05-10 14:29:00,
2013-05-10 09:30:00,34.5,30.5,28.82,NNE,22,5.8,5.8,85,0.00,CLR,,0.05,WeatherDisplay:10.37,2013-05-10 14:30:00,
2013-05-10 09:32:00,34.7,30.7,28.82,North,0,4.6,4.6,85,0.00,CLR,,0.05,WeatherDisplay:10.37,2013-05-10 14:32:00,
2013-05-10 09:33:00,34.9,30.8,28.82,NNW,338,3.5,3.6,85,0.00,CLR,,0.05,WeatherDisplay:10.37,2013-05-10 14:33:00,
2013-05-10 09:34:00,34.9,30.8,28.82,NNW,338,8.1,8.1,85,0.00,CLR,,0.05,WeatherDisplay:10.37,2013-05-10 14:34:00,
2013-05-10 09:35:00,34.5,30.2,28.82,North,0,8.1,8.1,84,0.00,CLR,,0.05,WeatherDisplay:10.37,2013-05-10 14:35:00,
2013-05-10 09:36:00,34.7,30.4,28.82,North,0,8.1,8.1,84,0.00,CLR,,0.05,WeatherDisplay:10.37,2013-05-10 14:36:00,
2013-05-10 09:37:00,34.7,30.4,28.82,North,0,10.5,10.5,84,0.00,CLR,,0.05,WeatherDisplay:10.37,2013-05-10 14:37:00,
2013-05-10 09:39:00,34.5,29.9,28.82,NNE,22,10.4,10.4,83,0.00,CLR,,0.05,WeatherDisplay:10.37,2013-05-10 14:39:00,
2013-05-10 09:40:00,34.7,30.1,28.82,North,0,9.2,9.2,83,0.00,CLR,,0.05,WeatherDisplay:10.37,2013-05-10 14:40:00,
2013-05-10 09:41:00,34.7,29.8,28.82,NNE,22,6.9,6.9,82,0.00,CLR,,0.05,WeatherDisplay:10.37,2013-05-10 14:41:00,
2013-05-10 09:42:00,34.7,29.8,28.82,NNW,338,6.9,6.9,82,0.00,CLR,,0.05,WeatherDisplay:10.37,2013-05-10 14:42:00,
2013-05-10 09:44:00,34.9,30.2,28.82,North,0,5.9,5.9,83,0.00,CLR,,0.05,WeatherDisplay:10.37,2013-05-10 14:44:00,
2013-05-10 09:45:00,34.9,30.2,28.82,North,0,5.9,5.9,83,0.00,CLR,,0.05,WeatherDisplay:10.37,2013-05-10 14:45:00,
2013-05-10 09:47:00,35.1,30.4,28.82,NNE,22,5.9,5.9,83,0.00,CLR,,0.05,WeatherDisplay:10.37,2013-05-10 14:47:00,
2013-05-10 09:48:00,35.1,30.4,28.82,North,0,5.8,5.8,83,0.00,CLR,,0.05,WeatherDisplay:10.37,2013-05-10 14:48:00,
2013-05-10 09:49:00,35.1,30.1,28.82,North,0,8.1,8.1,82,0.00,CLR,,0.05,WeatherDisplay:10.37,2013-05-10 14:49:00,
2013-05-10 09:50:00,35.1,30.1,28.82,North,0,5.8,5.8,82,0.00,CLR,,0.05,WeatherDisplay:10.37,2013-05-10 14:50:00,
2013-05-10 09:52:00,35.1,30.1,28.82,NNE,22,5.8,5.8,82,0.00,CLR,,0.05,WeatherDisplay:10.37,2013-05-10 14:52:00,
2013-05-10 09:53:00,35.2,30.3,28.82,NE,45,4.6,4.6,82,0.00,CLR,,0.05,WeatherDisplay:10.37,2013-05-10 14:53:00,
2013-05-10 09:54:00,35.2,30.3,28.82,NE,45,4.6,4.6,82,0.00,CLR,,0.05,WeatherDisplay:10.37,2013-05-10 14:54:00,
2013-05-10 09:55:00,35.2,30.0,28.82,NNE,22,6.9,6.9,81,0.00,CLR,,0.05,WeatherDisplay:10.37,2013-05-10 14:55:00,
2013-05-10 09:58:00,35.1,29.8,28.82,NNW,338,6.2,6.2,81,0.00,CLR,,0.05,WeatherDisplay:10.37,2013-05-10 14:58:00,
2013-05-10 09:59:00,35.1,29.8,28.82,NE,45,7.1,7.1,81,0.00,CLR,,0.05,WeatherDisplay:10.37,2013-05-10 14:59:00,
2013-05-10 10:00:00,35.1,30.1,28.82,NE,45,6.9,6.9,82,0.00,CLR,,0.05,WeatherDisplay:10.37,2013-05-10 15:00:00,
2013-05-10 10:03:00,35.1,29.8,28.82,NE,45,5.8,5.8,81,0.00,CLR,,0.05,WeatherDisplay:10.37,2013-05-10 15:03:00,
2013-05-10 10:04:00,35.1,29.8,28.82,NE,45,5.8,5.8,81,0.00,CLR,,0.05,WeatherDisplay:10.37,2013-05-10 15:04:00,
2013-05-10 10:05:00,35.1,29.8,28.82,NNE,21,3.0,7.0,81,0.00,CLR,,0.05,WeatherDisplay:10.37,2013-05-10 15:05:00,
2013-05-10 10:07:00,35.1,29.8,28.82,NNE,22,6.9,6.9,81,0.00,CLR,,0.05,WeatherDisplay:10.37,2013-05-10 15:07:00,
2013-05-10 10:08:00,35.2,30.3,28.82,NNW,338,3.5,3.5,82,0.00,CLR,,0.05,WeatherDisplay:10.37,2013-05-10 15:08:00,
2013-05-10 10:09:00,35.2,30.3,28.82,North,0,6.2,6.2,82,0.00,CLR,,0.05,WeatherDisplay:10.37,2013-05-10 15:09:00,
2013-05-10 10:10:00,35.2,30.3,28.82,North,0,6.2,6.2,82,0.00,CLR,,0.05,WeatherDisplay:10.37,2013-05-10 15:10:00,
2013-05-10 10:12:00,35.4,30.8,28.82,North,0,3.5,3.5,83,0.00,CLR,,0.05,WeatherDisplay:10.37,2013-05-10 15:12:00,
2013-05-10 10:14:00,35.2,30.6,28.82,North,0,6.9,6.9,83,0.00,CLR,,0.05,WeatherDisplay:10.37,2013-05-10 15:14:00,
2013-05-10 10:15:00,35.2,30.6,28.82,North,359,5.0,7.0,83,0.00,CLR,,0.05,WeatherDisplay:10.37,2013-05-10 15:15:00,
2013-05-10 10:16:00,35.2,30.0,28.82,North,0,9.2,9.2,81,0.00,CLR,,0.05,WeatherDisplay:10.37,2013-05-10 15:16:00,
2013-05-10 10:17:00,35.2,30.0,28.82,North,0,8.1,8.1,81,0.00,CLR,,0.05,WeatherDisplay:10.37,2013-05-10 15:17:00,
2013-05-10 10:19:00,35.4,30.2,28.82,NNW,338,8.1,8.1,81,0.00,CLR,,0.05,WeatherDisplay:10.37,2013-05-10 15:19:00,
2013-05-10 10:20:00,35.3,30.1,28.82,North,350,5.0,10.0,81,0.00,CLR,,0.05,WeatherDisplay:10.37,2013-05-10 15:20:00,
2013-05-10 10:21:00,35.2,29.7,28.82,NNW,338,6.9,6.9,80,0.00,CLR,,0.05,WeatherDisplay:10.37,2013-05-10 15:21:00,
2013-05-10 10:22:00,35.2,30.0,28.82,North,0,9.2,9.2,81,0.00,CLR,,0.05,WeatherDisplay:10.37,2013-05-10 15:22:00,
2013-05-10 10:24:00,35.6,30.3,28.82,NNE,22,5.8,5.8,81,0.00,CLR,,0.05,WeatherDisplay:10.37,2013-05-10 15:24:00,
2013-05-10 10:25:00,35.8,30.8,28.85,NNE,22,5.8,5.8,82,0.00,CLR,,0.05,WeatherDisplay:10.37,2013-05-10 15:25:00,
2013-05-10 10:27:00,36.0,31.0,28.85,NE,45,4.6,4.6,82,0.00,CLR,,0.05,WeatherDisplay:10.37,2013-05-10 15:27:00,
2013-05-10 10:28:00,36.1,30.9,28.85,NNE,22,4.6,4.6,81,0.00,CLR,,0.05,WeatherDisplay:10.37,2013-05-10 15:28:00,
2013-05-10 10:30:00,36.1,30.6,28.85,NNE,22,8.1,8.1,80,0.00,CLR,,0.05,WeatherDisplay:10.37,2013-05-10 15:30:00,
2013-05-10 10:32:00,36.5,30.9,28.85,NNE,22,3.5,3.5,80,0.00,CLR,,0.05,WeatherDisplay:10.37,2013-05-10 15:32:00,
2013-05-10 10:33:00,36.7,31.1,28.85,NNE,22,3.5,3.5,80,0.00,CLR,,0.05,WeatherDisplay:10.37,2013-05-10 15:33:00,
2013-05-10 10:35:00,36.9,31.3,28.85,NNW,338,5.8,5.8,80,0.00,CLR,,0.05,WeatherDisplay:10.37,2013-05-10 15:35:00,
2013-05-10 10:36:00,36.7,30.8,28.85,NNW,338,8.1,8.1,79,0.00,CLR,,0.05,WeatherDisplay:10.37,2013-05-10 15:36:00,
2013-05-10 10:37:00,36.7,30.5,28.85,NE,45,8.1,8.1,78,0.00,CLR,,0.05,WeatherDisplay:10.37,2013-05-10 15:37:00,
2013-05-10 10:39:00,36.7,30.5,28.85,North,0,5.8,5.8,78,0.00,CLR,,0.05,WeatherDisplay:10.37,2013-05-10 15:39:00,
2013-05-10 10:40:00,37.0,30.8,28.85,North,0,3.5,3.5,78,0.00,CLR,,0.05,WeatherDisplay:10.37,2013-05-10 15:40:00,
2013-05-10 10:41:00,37.0,30.8,28.85,NW,315,3.5,3.5,78,0.00,CLR,,0.05,WeatherDisplay:10.37,2013-05-10 15:41:00,
2013-05-10 10:43:00,37.0,30.8,28.85,North,0,5.8,5.8,78,0.00,CLR,,0.05,WeatherDisplay:10.37,2013-05-10 15:43:00,
2013-05-10 10:44:00,37.0,30.5,28.85,NNE,22,6.9,6.9,77,0.00,CLR,,0.05,WeatherDisplay:10.37,2013-05-10 15:44:00,
2013-05-10 10:45:00,37.0,30.5,28.85,North,0,6.9,6.9,77,0.00,CLR,,0.05,WeatherDisplay:10.37,2013-05-10 15:45:00,
2013-05-10 10:46:00,37.0,30.5,28.85,NE,45,6.9,6.9,77,0.00,CLR,,0.05,WeatherDisplay:10.37,2013-05-10 15:46:00,
2013-05-10 10:47:00,37.0,30.2,28.85,NNW,338,5.8,5.8,76,0.00,CLR,,0.05,WeatherDisplay:10.37,2013-05-10 15:47:00,
2013-05-10 10:48:00,37.2,30.3,28.85,NE,45,5.8,5.8,76,0.00,CLR,,0.05,WeatherDisplay:10.37,2013-05-10 15:48:00,
2013-05-10 10:50:00,37.4,30.8,28.85,NE,45,3.5,3.5,77,0.00,CLR,,0.05,WeatherDisplay:10.37,2013-05-10 15:50:00,
2013-05-10 10:51:00,37.6,31.3,28.85,NW,315,3.5,3.5,78,0.00,CLR,,0.05,WeatherDisplay:10.37,2013-05-10 15:51:00,
2013-05-10 10:53:00,37.6,31.3,28.85,NNE,22,5.8,5.8,78,0.00,CLR,,0.05,WeatherDisplay:10.37,2013-05-10 15:53:00,
2013-05-10 10:54:00,37.8,31.5,28.85,NNW,338,5.9,5.9,78,0.00,CLR,,0.05,WeatherDisplay:10.37,2013-05-10 15:54:00,
2013-05-10 10:56:00,37.6,31.0,28.85,NNW,338,6.0,6.0,77,0.00,CLR,,0.05,WeatherDisplay:10.37,2013-05-10 15:56:00,
2013-05-10 10:57:00,37.6,31.0,28.85,NNW,338,5.8,5.8,77,0.00,CLR,,0.05,WeatherDisplay:10.37,2013-05-10 15:57:00,
2013-05-10 10:58:00,37.8,31.2,28.85,NNW,338,4.6,4.6,77,0.00,CLR,,0.05,WeatherDisplay:10.37,2013-05-10 15:58:00,
2013-05-10 10:59:00,37.8,31.2,28.85,NNW,338,4.6,4.6,77,0.00,CLR,,0.05,WeatherDisplay:10.37,2013-05-10 15:59:00,
2013-05-10 11:02:00,37.4,30.5,28.85,NW,315,5.8,5.8,76,0.00,CLR,,0.05,WeatherDisplay:10.37,2013-05-10 16:02:00,
2013-05-10 11:03:00,37.6,30.7,28.85,NNW,338,4.6,4.6,76,0.00,CLR,,0.05,WeatherDisplay:10.37,2013-05-10 16:03:00,
2013-05-10 11:04:00,37.6,30.7,28.85,North,0,5.8,5.8,76,0.00,CLR,,0.05,WeatherDisplay:10.37,2013-05-10 16:04:00,
2013-05-10 11:07:00,37.9,31.4,28.85,NW,315,3.8,3.8,77,0.00,CLR,,0.05,WeatherDisplay:10.37,2013-05-10 16:07:00,
2013-05-10 11:08:00,38.1,31.2,28.85,WNW,292,6.0,6.0,76,0.00,CLR,,0.05,WeatherDisplay:10.37,2013-05-10 16:08:00,
2013-05-10 11:09:00,38.1,31.2,28.85,WNW,292,5.8,5.8,76,0.00,CLR,,0.05,WeatherDisplay:10.37,2013-05-10 16:09:00,
2013-05-10 11:10:00,38.1,31.2,28.85,NNW,329,5.0,9.0,76,0.00,CLR,,0.05,WeatherDisplay:10.37,2013-05-10 16:10:00,
2013-05-10 11:12:00,37.8,30.2,28.85,NNE,22,8.1,8.1,74,0.00,CLR,,0.05,WeatherDisplay:10.37,2013-05-10 16:12:00,
2013-05-10 11:14:00,37.8,30.2,28.85,North,0,4.6,4.6,74,0.00,CLR,,0.05,WeatherDisplay:10.37,2013-05-10 16:14:00,
2013-05-10 11:15:00,38.4,31.1,28.85,North,351,3.0,8.0,75,0.00,CLR,,0.05,WeatherDisplay:10.37,2013-05-10 16:15:00,
2013-05-10 11:17:00,38.8,31.3,28.85,NW,315,9.8,9.8,74,0.00,CLR,,0.05,WeatherDisplay:10.37,2013-05-10 16:17:00,
2013-05-10 11:20:00,38.8,30.9,28.85,North,0,5.8,5.8,73,0.00,CLR,,0.05,WeatherDisplay:10.37,2013-05-10 16:20:00,
2013-05-10 11:23:00,39.2,30.6,28.85,NNE,22,5.8,5.8,71,0.00,CLR,,0.05,WeatherDisplay:10.37,2013-05-10 16:23:00,
2013-05-10 11:25:00,39.4,30.4,28.85,North,0,4.6,4.6,70,0.00,CLR,,0.05,WeatherDisplay:10.37,2013-05-10 16:25:00,
2013-05-10 11:26:00,39.6,30.6,28.85,NNE,22,5.9,5.9,70,0.00,CLR,,0.05,WeatherDisplay:10.37,2013-05-10 16:26:00,
2013-05-10 11:28:00,39.7,30.8,28.85,NNE,22,6.9,6.9,70,0.00,CLR,,0.05,WeatherDisplay:10.37,2013-05-10 16:28:00,
2013-05-10 11:30:00,40.1,31.1,28.85,NNW,338,4.7,4.7,70,0.00,CLR,,0.05,WeatherDisplay:10.37,2013-05-10 16:30:00,
2013-05-10 11:31:00,40.1,31.1,28.85,NNE,22,5.8,5.8,70,0.00,CLR,,0.05,WeatherDisplay:10.37,2013-05-10 16:31:00,
2013-05-10 11:32:00,40.1,30.7,28.85,NNE,22,5.8,5.8,69,0.00,CLR,,0.05,WeatherDisplay:10.37,2013-05-10 16:32:00,
2013-05-10 11:34:00,40.1,30.7,28.85,WNW,292,5.8,5.8,69,0.00,CLR,,0.05,WeatherDisplay:10.37,2013-05-10 16:34:00,
2013-05-10 11:36:00,40.3,31.3,28.85,NE,45,4.9,4.9,70,0.00,CLR,,0.05,WeatherDisplay:10.37,2013-05-10 16:36:00,
2013-05-10 11:37:00,40.3,31.3,28.85,NE,45,4.6,4.6,70,0.00,CLR,,0.05,WeatherDisplay:10.37,2013-05-10 16:37:00,
2013-05-10 11:38:00,40.6,32.0,28.85,NNE,22,3.5,3.5,71,0.00,CLR,,0.05,WeatherDisplay:10.37,2013-05-10 16:38:00,
2013-05-10 11:39:00,40.6,32.0,28.85,North,0,5.6,5.6,71,0.00,CLR,,0.05,WeatherDisplay:10.37,2013-05-10 16:39:00,
2013-05-10 11:41:00,40.5,31.4,28.85,NE,45,3.8,3.8,70,0.00,CLR,,0.05,WeatherDisplay:10.37,2013-05-10 16:41:00,
2013-05-10 11:42:00,40.6,31.6,28.85,NW,315,6.2,6.2,70,0.00,CLR,,0.05,WeatherDisplay:10.37,2013-05-10 16:42:00,
2013-05-10 11:43:00,40.5,31.1,28.85,NNE,22,6.9,6.9,69,0.00,CLR,,0.05,WeatherDisplay:10.37,2013-05-10 16:43:00,
2013-05-10 11:44:00,40.5,31.4,28.85,NW,315,5.8,5.8,70,0.00,CLR,,0.05,WeatherDisplay:10.37,2013-05-10 16:44:00,
2013-05-10 11:46:00,40.6,31.6,28.85,North,0,4.6,4.6,70,0.00,CLR,,0.05,WeatherDisplay:10.37,2013-05-10 16:46:00,
2013-05-10 11:47:00,41.0,32.0,28.85,NNE,22,3.5,3.5,70,0.00,CLR,,0.05,WeatherDisplay:10.37,2013-05-10 16:47:00,
2013-05-10 11:48:00,41.2,32.1,28.85,NNE,22,3.5,3.5,70,0.00,CLR,,0.05,WeatherDisplay:10.37,2013-05-10 16:48:00,
2013-05-10 11:49:00,41.2,31.8,28.85,North,0,3.5,3.5,69,0.00,CLR,,0.05,WeatherDisplay:10.37,2013-05-10 16:49:00,
2013-05-10 11:50:00,41.2,31.8,28.85,NNE,22,3.5,3.5,69,0.00,CLR,,0.05,WeatherDisplay:10.37,2013-05-10 16:50:00,
2013-05-10 11:51:00,41.2,31.4,28.85,NE,45,5.8,5.8,68,0.00,CLR,,0.05,WeatherDisplay:10.37,2013-05-10 16:51:00,
2013-05-10 11:53:00,41.4,31.6,28.85,NNE,22,4.6,4.6,68,0.00,CLR,,0.05,WeatherDisplay:10.37,2013-05-10 16:53:00,
2013-05-10 11:54:00,41.4,31.6,28.85,NNE,22,5.4,5.4,68,0.00,CLR,,0.05,WeatherDisplay:10.37,2013-05-10 16:54:00,
2013-05-10 11:55:00,41.4,31.6,28.85,North,0,5.8,5.8,68,0.00,CLR,,0.05,WeatherDisplay:10.37,2013-05-10 16:55:00,
2013-05-10 11:56:00,41.7,31.9,28.85,North,0,5.9,5.9,68,0.00,CLR,,0.05,WeatherDisplay:10.37,2013-05-10 16:56:00,
2013-05-10 11:58:00,41.7,31.6,28.85,NNW,338,5.8,5.8,67,0.00,CLR,,0.05,WeatherDisplay:10.37,2013-05-10 16:58:00,
2013-05-10 11:59:00,41.9,31.7,28.85,North,0,5.8,5.8,67,0.00,CLR,,0.05,WeatherDisplay:10.37,2013-05-10 16:59:00,
2013-05-10 12:00:00,41.9,31.4,28.85,NNE,22,5.8,5.8,66,0.00,CLR,,0.05,WeatherDisplay:10.37,2013-05-10 17:00:00,
2013-05-10 12:01:00,42.1,31.5,28.85,NNE,22,5.8,5.8,66,0.00,CLR,,0.05,WeatherDisplay:10.37,2013-05-10 17:01:00,
2013-05-10 12:03:00,42.4,31.9,28.85,North,0,6.0,6.0,66,0.00,CLR,,0.05,WeatherDisplay:10.37,2013-05-10 17:03:00,
2013-05-10 12:04:00,42.4,31.9,28.85,NNE,22,6.0,6.0,66,0.00,CLR,,0.05,WeatherDisplay:10.37,2013-05-10 17:04:00,
2013-05-10 12:05:00,42.4,31.1,28.85,NNE,22,6.9,6.9,64,0.00,CLR,,0.05,WeatherDisplay:10.37,2013-05-10 17:05:00,
2013-05-10 12:06:00,42.4,30.7,28.85,North,0,5.8,5.8,63,0.00,CLR,,0.05,WeatherDisplay:10.37,2013-05-10 17:06:00,
2013-05-10 12:09:00,42.8,32.2,28.85,NE,45,8.1,8.1,66,0.00,CLR,,0.05,WeatherDisplay:10.37,2013-05-10 17:09:00,
2013-05-10 12:10:00,42.8,32.2,28.85,North,0,4.6,4.6,66,0.00,CLR,,0.05,WeatherDisplay:10.37,2013-05-10 17:10:00,
2013-05-10 12:11:00,43.0,32.4,28.85,NNE,22,5.4,5.4,66,0.00,CLR,,0.05,WeatherDisplay:10.37,2013-05-10 17:11:00,
2013-05-10 12:14:00,42.6,30.9,28.85,NW,315,8.1,8.1,63,0.00,CLR,,0.05,WeatherDisplay:10.37,2013-05-10 17:14:00,
2013-05-10 12:15:00,42.6,30.9,28.85,North,0,6.9,6.9,63,0.00,CLR,,0.05,WeatherDisplay:10.37,2013-05-10 17:15:00,
2013-05-10 12:16:00,42.8,31.1,28.85,North,0,4.6,5.6,63,0.00,CLR,,0.05,WeatherDisplay:10.37,2013-05-10 17:16:00,
2013-05-10 12:17:00,42.8,31.5,28.85,North,0,8.1,8.1,64,0.00,CLR,,0.05,WeatherDisplay:10.37,2013-05-10 17:17:00,
2013-05-10 12:20:00,43.3,31.6,28.85,NW,315,6.9,6.9,63,0.00,CLR,,0.05,WeatherDisplay:10.37,2013-05-10 17:20:00,
2013-05-10 12:21:00,43.7,32.3,28.85,NNW,338,5.8,5.8,64,0.00,CLR,,0.05,WeatherDisplay:10.37,2013-05-10 17:21:00,
2013-05-10 12:22:00,43.7,31.9,28.85,NNE,22,4.6,4.6,63,0.00,CLR,,0.05,WeatherDisplay:10.37,2013-05-10 17:22:00,
2013-05-10 12:26:00,44.1,32.3,28.85,NNE,22,9.2,9.2,63,0.00,CLR,,0.05,WeatherDisplay:10.37,2013-05-10 17:26:00,
2013-05-10 12:27:00,44.2,32.4,28.85,NNW,338,5.9,5.9,63,0.00,CLR,,0.05,WeatherDisplay:10.37,2013-05-10 17:27:00,
2013-05-10 12:28:00,44.4,33.0,28.85,North,0,5.8,5.8,64,0.00,CLR,,0.05,WeatherDisplay:10.37,2013-05-10 17:28:00,
2013-05-10 12:31:00,44.2,32.0,28.85,NNW,338,6.9,6.9,62,0.00,CLR,,0.05,WeatherDisplay:10.37,2013-05-10 17:31:00,
2013-05-10 12:32:00,44.2,32.0,28.85,North,0,4.9,4.9,62,0.00,CLR,,0.05,WeatherDisplay:10.37,2013-05-10 17:32:00,
2013-05-10 12:33:00,44.2,32.0,28.85,NNE,22,4.6,4.6,62,0.00,CLR,,0.05,WeatherDisplay:10.37,2013-05-10 17:33:00,
2013-05-10 12:36:00,45.1,32.9,28.85,NNW,338,5.6,5.6,62,0.00,CLR,,0.05,WeatherDisplay:10.37,2013-05-10 17:36:00,
2013-05-10 12:37:00,44.6,31.1,28.85,NNW,338,8.1,8.1,59,0.00,CLR,,0.05,WeatherDisplay:10.37,2013-05-10 17:37:00,
2013-05-10 12:38:00,44.2,30.8,28.85,NNW,338,8.1,8.1,59,0.00,CLR,,0.05,WeatherDisplay:10.37,2013-05-10 17:38:00,
2013-05-10 12:39:00,44.1,30.6,28.85,North,0,7.6,7.6,59,0.00,CLR,,0.05,WeatherDisplay:10.37,2013-05-10 17:39:00,
2013-05-10 12:42:00,44.1,30.6,28.85,North,0,6.9,6.9,59,0.00,CLR,,0.05,WeatherDisplay:10.37,2013-05-10 17:42:00,
2013-05-10 12:43:00,44.1,30.6,28.85,NNE,22,6.9,6.9,59,0.00,CLR,,0.05,WeatherDisplay:10.37,2013-05-10 17:43:00,
2013-05-10 12:46:00,44.8,32.5,28.85,North,0,4.9,4.9,62,0.00,CLR,,0.05,WeatherDisplay:10.37,2013-05-10 17:46:00,
2013-05-10 12:48:00,45.3,32.2,28.85,NE,45,4.6,4.6,60,0.00,CLR,,0.05,WeatherDisplay:10.37,2013-05-10 17:48:00,
2013-05-10 12:49:00,45.3,32.2,28.85,NW,315,4.6,4.6,60,0.00,CLR,,0.05,WeatherDisplay:10.37,2013-05-10 17:49:00,
2013-05-10 12:51:00,45.9,33.2,28.85,NE,45,5.6,5.6,61,0.00,CLR,,0.05,WeatherDisplay:10.37,2013-05-10 17:51:00,
2013-05-10 12:53:00,46.0,32.9,28.85,NNE,22,5.8,5.8,60,0.00,CLR,,0.05,WeatherDisplay:10.37,2013-05-10 17:53:00,
2013-05-10 12:54:00,46.0,32.9,28.85,NE,45,3.5,3.5,60,0.00,CLR,,0.05,WeatherDisplay:10.37,2013-05-10 17:54:00,
2013-05-10 12:55:00,46.2,33.1,28.82,NW,315,5.4,5.4,60,0.00,CLR,,0.05,WeatherDisplay:10.37,2013-05-10 17:55:00,
2013-05-10 12:56:00,46.0,32.5,28.82,North,0,6.9,6.9,59,0.00,CLR,,0.05,WeatherDisplay:10.37,2013-05-10 17:56:00,
2013-05-10 12:59:00,46.0,32.5,28.82,WNW,292,6.9,6.9,59,0.00,CLR,,0.05,WeatherDisplay:10.37,2013-05-10 17:59:00,
2013-05-10 13:00:00,46.2,33.1,28.82,North,0,6.9,6.9,60,0.00,CLR,,0.05,WeatherDisplay:10.37,2013-05-10 18:00:00,
2013-05-10 13:01:00,46.4,32.8,28.82,NNW,338,3.5,3.5,59,0.00,CLR,,0.05,WeatherDisplay:10.37,2013-05-10 18:01:00,
2013-05-10 13:04:00,46.2,31.8,28.82,NNW,338,8.1,8.1,57,0.00,CLR,,0.05,WeatherDisplay:10.37,2013-05-10 18:04:00,
2013-05-10 13:05:00,46.2,32.2,28.82,NW,315,8.1,8.1,58,0.00,CLR,,0.05,WeatherDisplay:10.37,2013-05-10 18:05:00,
2013-05-10 13:06:00,46.2,32.2,28.82,NW,315,6.9,6.9,58,0.00,CLR,,0.05,WeatherDisplay:10.37,2013-05-10 18:06:00,
2013-05-10 13:07:00,46.2,32.2,28.82,North,0,6.9,6.9,58,0.00,CLR,,0.05,WeatherDisplay:10.37,2013-05-10 18:07:00,
2013-05-10 13:09:00,46.6,32.6,28.82,NNE,22,4.9,4.9,58,0.00,CLR,,0.05,WeatherDisplay:10.37,2013-05-10 18:09:00,
2013-05-10 13:10:00,46.8,32.3,28.82,North,0,5.6,5.6,57,0.00,CLR,,0.05,WeatherDisplay:10.37,2013-05-10 18:10:00,
2013-05-10 13:11:00,46.8,32.3,28.82,North,0,5.8,5.8,57,0.00,CLR,,0.05,WeatherDisplay:10.37,2013-05-10 18:11:00,
2013-05-10 13:12:00,46.9,32.5,28.82,NNW,338,5.8,5.8,57,0.00,CLR,,0.05,WeatherDisplay:10.37,2013-05-10 18:12:00,
2013-05-10 13:14:00,46.9,32.5,28.82,NNW,338,7.6,7.6,57,0.00,CLR,,0.05,WeatherDisplay:10.37,2013-05-10 18:14:00,
2013-05-10 13:16:00,46.6,31.7,28.82,NW,315,4.6,5.6,56,0.00,CLR,,0.05,WeatherDisplay:10.37,2013-05-10 18:16:00,
2013-05-10 13:19:00,47.1,32.2,28.82,North,0,4.6,4.6,56,0.00,CLR,,0.05,WeatherDisplay:10.37,2013-05-10 18:19:00,
2013-05-10 13:20:00,47.5,33.4,28.82,NW,315,4.6,4.6,58,0.00,CLR,,0.05,WeatherDisplay:10.37,2013-05-10 18:20:00,
2013-05-10 13:21:00,47.3,31.9,28.82,North,0,6.9,6.9,55,0.00,CLR,,0.05,WeatherDisplay:10.37,2013-05-10 18:21:00,
2013-05-10 13:24:00,46.9,31.6,28.82,NW,315,6.9,6.9,55,0.00,CLR,,0.05,WeatherDisplay:10.37,2013-05-10 18:24:00,
2013-05-10 13:25:00,46.9,31.6,28.82,NNE,22,4.6,4.6,55,0.00,CLR,,0.05,WeatherDisplay:10.37,2013-05-10 18:25:00,
2013-05-10 13:27:00,47.3,32.4,28.82,North,0,7.4,7.4,56,0.00,CLR,,0.05,WeatherDisplay:10.37,2013-05-10 18:27:00,
2013-05-10 13:30:00,47.3,31.9,28.82,NNW,338,6.9,6.9,55,0.00,CLR,,0.05,WeatherDisplay:10.37,2013-05-10 18:30:00,
2013-05-10 13:31:00,47.5,32.6,28.82,NNW,338,5.8,5.8,56,0.00,CLR,,0.05,WeatherDisplay:10.37,2013-05-10 18:31:00,
2013-05-10 13:32:00,47.7,33.2,28.82,NNW,338,5.8,5.8,57,0.00,CLR,,0.05,WeatherDisplay:10.37,2013-05-10 18:32:00,
2013-05-10 13:33:00,47.7,33.2,28.82,NNW,338,5.8,5.8,57,0.00,CLR,,0.05,WeatherDisplay:10.37,2013-05-10 18:33:00,
2013-05-10 13:36:00,47.1,31.3,28.82,ENE,68,5.9,5.9,54,0.00,CLR,,0.05,WeatherDisplay:10.37,2013-05-10 18:36:00,
2013-05-10 13:38:00,47.3,31.9,28.82,North,0,5.8,5.8,55,0.00,CLR,,0.05,WeatherDisplay:10.37,2013-05-10 18:38:00,
2013-05-10 13:42:00,47.5,32.1,28.82,NNE,22,5.8,5.8,55,0.00,CLR,,0.05,WeatherDisplay:10.37,2013-05-10 18:42:00,
2013-05-10 13:43:00,47.5,31.6,28.82,NNE,22,5.8,5.8,54,0.00,CLR,,0.05,WeatherDisplay:10.37,2013-05-10 18:43:00,
2013-05-10 13:47:00,48.0,32.2,28.82,North,0,4.6,4.6,54,0.00,CLR,,0.05,WeatherDisplay:10.37,2013-05-10 18:47:00,
2013-05-10 13:48:00,48.9,33.0,28.82,North,0,3.5,3.5,54,0.00,CLR,,0.05,WeatherDisplay:10.37,2013-05-10 18:48:00,
2013-05-10 13:50:00,48.7,32.8,28.82,North,0,6.9,6.9,54,0.00,CLR,,0.05,WeatherDisplay:10.37,2013-05-10 18:50:00,
2013-05-10 13:53:00,48.7,31.9,28.82,NNE,22,5.8,5.8,52,0.00,CLR,,0.05,WeatherDisplay:10.37,2013-05-10 18:53:00,
2013-05-10 13:55:00,48.6,32.7,28.82,North,0,6.9,6.9,54,0.00,CLR,,0.05,WeatherDisplay:10.37,2013-05-10 18:55:00,
2013-05-10 13:56:00,48.6,32.7,28.82,North,0,6.9,6.9,54,0.00,CLR,,0.05,WeatherDisplay:10.37,2013-05-10 18:56:00,
2013-05-10 13:58:00,48.6,32.7,28.82,NNW,338,5.8,5.8,54,0.00,CLR,,0.05,WeatherDisplay:10.37,2013-05-10 18:58:00,
2013-05-10 13:59:00,48.6,32.7,28.82,North,0,5.8,5.8,54,0.00,CLR,,0.05,WeatherDisplay:10.37,2013-05-10 18:59:00,
2013-05-10 14:00:00,48.6,32.2,28.82,NW,315,5.8,5.8,53,0.00,CLR,,0.05,WeatherDisplay:10.37,2013-05-10 19:00:00,
2013-05-10 14:02:00,48.7,32.8,28.82,NNW,338,3.8,3.8,54,0.00,CLR,,0.05,WeatherDisplay:10.37,2013-05-10 19:02:00,
2013-05-10 14:03:00,48.6,31.7,28.82,North,0,6.9,6.9,52,0.00,CLR,,0.05,WeatherDisplay:10.37,2013-05-10 19:03:00,
2013-05-10 14:04:00,48.7,32.4,28.82,NNW,338,6.9,6.9,53,0.00,CLR,,0.05,WeatherDisplay:10.37,2013-05-10 19:04:00,
2013-05-10 14:07:00,48.6,31.7,28.82,NNW,338,6.9,6.9,52,0.00,CLR,,0.05,WeatherDisplay:10.37,2013-05-10 19:07:00,
2013-05-10 14:09:00,48.9,32.5,28.82,NW,315,4.6,4.6,53,0.00,CLR,,0.05,WeatherDisplay:10.37,2013-05-10 19:09:00,
2013-05-10 14:12:00,49.6,32.7,28.82,NE,45,3.5,3.5,52,0.00,CLR,,0.05,WeatherDisplay:10.37,2013-05-10 19:12:00,
2013-05-10 14:14:00,49.6,33.2,28.82,NNE,22,3.5,3.5,53,0.00,CLR,,0.05,WeatherDisplay:10.37,2013-05-10 19:14:00,
2013-05-10 14:17:00,49.1,32.2,28.82,NNW,338,3.5,3.5,52,0.00,CLR,,0.05,WeatherDisplay:10.37,2013-05-10 19:17:00,
2013-05-10 14:18:00,48.9,32.0,28.82,NNE,22,5.6,5.6,52,0.00,CLR,,0.05,WeatherDisplay:10.37,2013-05-10 19:18:00,
2013-05-10 14:19:00,48.9,31.6,28.82,North,0,5.8,5.8,51,0.00,CLR,,0.05,WeatherDisplay:10.37,2013-05-10 19:19:00,
2013-05-10 14:20:00,48.9,31.6,28.82,NNE,13,5.0,6.0,51,0.00,CLR,,0.05,WeatherDisplay:10.37,2013-05-10 19:20:00,
2013-05-10 14:23:00,48.7,31.4,28.82,North,0,8.1,8.1,51,0.00,CLR,,0.05,WeatherDisplay:10.37,2013-05-10 19:23:00,
2013-05-10 14:24:00,48.7,31.9,28.82,NNW,338,5.8,5.8,52,0.00,CLR,,0.05,WeatherDisplay:10.37,2013-05-10 19:24:00,
2013-05-10 14:25:00,48.4,31.5,28.82,North,0,7.6,7.6,52,0.00,CLR,,0.05,WeatherDisplay:10.37,2013-05-10 19:25:00,
2013-05-10 14:28:00,48.6,32.2,28.82,North,0,4.6,4.6,53,0.00,CLR,,0.05,WeatherDisplay:10.37,2013-05-10 19:28:00,
2013-05-10 14:29:00,48.6,32.2,28.82,North,0,4.6,4.6,53,0.00,CLR,,0.05,WeatherDisplay:10.37,2013-05-10 19:29:00,
2013-05-10 14:30:00,48.7,32.4,28.82,NW,315,3.6,3.6,53,0.00,CLR,,0.05,WeatherDisplay:10.37,2013-05-10 19:30:00,
2013-05-10 14:31:00,48.9,32.5,28.82,NNE,22,3.5,3.5,53,0.00,CLR,,0.05,WeatherDisplay:10.37,2013-05-10 19:31:00,
2013-05-10 14:33:00,48.9,32.0,28.82,North,0,4.6,4.6,52,0.00,CLR,,0.05,WeatherDisplay:10.37,2013-05-10 19:33:00,
2013-05-10 14:34:00,48.6,32.2,28.82,NW,315,6.2,6.2,53,0.00,CLR,,0.05,WeatherDisplay:10.37,2013-05-10 19:34:00,
2013-05-10 14:35:00,48.4,32.5,28.82,North,0,5.8,5.8,54,0.00,CLR,,0.05,WeatherDisplay:10.37,2013-05-10 19:35:00,
2013-05-10 14:36:00,48.4,32.5,28.82,WNW,292,5.8,5.8,54,0.00,CLR,,0.05,WeatherDisplay:10.37,2013-05-10 19:36:00,
2013-05-10 14:39:00,48.0,32.2,28.82,WNW,292,6.4,6.4,54,0.00,CLR,,0.05,WeatherDisplay:10.37,2013-05-10 19:39:00,
2013-05-10 14:40:00,47.8,32.0,28.79,NW,315,6.9,6.9,54,0.00,CLR,,0.05,WeatherDisplay:10.37,2013-05-10 19:40:00,
2013-05-10 14:41:00,47.8,31.5,28.79,NW,315,5.8,5.8,53,0.00,CLR,,0.05,WeatherDisplay:10.37,2013-05-10 19:41:00,
2013-05-10 14:42:00,47.8,31.5,28.79,WNW,292,4.6,4.6,53,0.00,CLR,,0.05,WeatherDisplay:10.37,2013-05-10 19:42:00,
2013-05-10 14:45:00,48.6,33.1,28.79,NNW,338,2.3,2.3,55,0.00,CLR,,0.05,WeatherDisplay:10.37,2013-05-10 19:45:00,
2013-05-10 14:46:00,48.6,32.7,28.79,NW,315,6.9,6.9,54,0.00,CLR,,0.05,WeatherDisplay:10.37,2013-05-10 19:46:00,
2013-05-10 14:47:00,48.6,33.1,28.79,NNE,22,6.9,6.9,55,0.00,CLR,,0.05,WeatherDisplay:10.37,2013-05-10 19:47:00,
2013-05-10 14:50:00,48.2,31.4,28.79,NNE,22,5.8,5.8,52,0.00,CLR,,0.05,WeatherDisplay:10.37,2013-05-10 19:50:00,
2013-05-10 14:51:00,48.4,32.0,28.79,NNE,22,6.9,6.9,53,0.00,CLR,,0.05,WeatherDisplay:10.37,2013-05-10 19:51:00,
2013-05-10 14:52:00,48.4,32.0,28.79,North,0,6.9,6.9,53,0.00,CLR,,0.05,WeatherDisplay:10.37,2013-05-10 19:52:00,
2013-05-10 14:53:00,48.6,33.1,28.79,West,270,5.8,5.8,55,0.00,CLR,,0.05,WeatherDisplay:10.37,2013-05-10 19:53:00,
2013-05-10 14:55:00,49.1,33.2,28.79,NW,315,4.6,4.6,54,0.00,CLR,,0.05,WeatherDisplay:10.37,2013-05-10 19:55:00,
2013-05-10 14:57:00,48.9,32.0,28.79,WNW,292,8.1,8.1,52,0.00,CLR,,0.05,WeatherDisplay:10.37,2013-05-10 19:57:00,
2013-05-10 14:59:00,49.1,32.7,28.79,North,0,4.6,4.6,53,0.00,CLR,,0.05,WeatherDisplay:10.37,2013-05-10 19:59:00,
2013-05-10 15:00:00,49.5,33.0,28.79,North,0,3.5,3.5,53,0.00,CLR,,0.05,WeatherDisplay:10.37,2013-05-10 20:00:00,
2013-05-10 15:02:00,49.5,33.0,28.79,NW,315,5.8,5.8,53,0.00,CLR,,0.05,WeatherDisplay:10.37,2013-05-10 20:02:00,
2013-05-10 15:03:00,49.3,32.9,28.79,NNE,22,5.8,5.8,53,0.00,CLR,,0.05,WeatherDisplay:10.37,2013-05-10 20:03:00,
2013-05-10 15:04:00,49.5,32.6,28.79,NNW,338,5.8,5.8,52,0.00,CLR,,0.05,WeatherDisplay:10.37,2013-05-10 20:04:00,
2013-05-10 15:06:00,49.5,33.0,28.79,North,0,5.8,5.8,53,0.00,CLR,,0.05,WeatherDisplay:10.37,2013-05-10 20:06:00,
2013-05-10 15:07:00,49.5,32.6,28.79,WNW,292,4.9,4.9,52,0.00,CLR,,0.05,WeatherDisplay:10.37,2013-05-10 20:07:00,
2013-05-10 15:08:00,49.1,31.7,28.79,WNW,292,5.8,5.8,51,0.00,CLR,,0.05,WeatherDisplay:10.37,2013-05-10 20:08:00,
2013-05-10 15:09:00,49.3,31.9,28.79,North,0,5.8,5.8,51,0.00,CLR,,0.05,WeatherDisplay:10.37,2013-05-10 20:09:00,
2013-05-10 15:10:00,49.5,32.1,28.79,NW,315,4.6,4.6,51,0.00,CLR,,0.05,WeatherDisplay:10.37,2013-05-10 20:10:00,
2013-05-10 15:11:00,49.5,32.6,28.79,North,0,4.6,4.6,52,0.00,CLR,,0.05,WeatherDisplay:10.37,2013-05-10 20:11:00,
2013-05-10 15:12:00,49.5,32.6,28.79,NE,45,5.8,5.8,52,0.00,CLR,,0.05,WeatherDisplay:10.37,2013-05-10 20:12:00,
2013-05-10 15:14:00,49.6,33.2,28.79,ENE,68,3.5,3.5,53,0.00,CLR,,0.05,WeatherDisplay:10.37,2013-05-10 20:14:00,
2013-05-10 15:17:00,49.6,33.2,28.79,North,0,4.6,4.6,53,0.00,CLR,,0.05,WeatherDisplay:10.37,2013-05-10 20:17:00,
2013-05-10 15:18:00,50.0,33.5,28.79,North,0,3.5,3.5,53,0.00,CLR,,0.05,WeatherDisplay:10.37,2013-05-10 20:18:00,
2013-05-10 15:19:00,50.5,33.6,28.79,North,0,4.6,4.6,52,0.00,CLR,,0.05,WeatherDisplay:10.37,2013-05-10 20:19:00,
2013-05-10 15:22:00,50.7,33.7,28.79,North,0,4.6,4.6,52,0.00,CLR,,0.05,WeatherDisplay:10.37,2013-05-10 20:22:00,
2013-05-10 15:23:00,50.7,33.2,28.79,North,0,4.6,4.6,51,0.00,CLR,,0.05,WeatherDisplay:10.37,2013-05-10 20:23:00,
2013-05-10 15:25:00,50.4,32.4,28.79,NE,45,4.6,4.6,50,0.00,CLR,,0.05,WeatherDisplay:10.37,2013-05-10 20:25:00,
2013-05-10 15:26:00,50.5,33.1,28.79,North,0,2.3,3.1,51,0.00,CLR,,0.05,WeatherDisplay:10.37,2013-05-10 20:26:00,
2013-05-10 15:27:00,50.7,33.2,28.79,North,0,6.2,6.2,51,0.00,CLR,,0.05,WeatherDisplay:10.37,2013-05-10 20:27:00,
2013-05-10 15:29:00,50.2,32.2,28.79,North,0,5.8,5.8,50,0.00,CLR,,0.05,WeatherDisplay:10.37,2013-05-10 20:29:00,
2013-05-10 15:30:00,50.2,32.2,28.79,NNE,22,5.8,5.8,50,0.00,CLR,,0.05,WeatherDisplay:10.37,2013-05-10 20:30:00,
2013-05-10 15:31:00,50.2,32.7,28.79,NW,315,5.8,5.8,51,0.00,CLR,,0.05,WeatherDisplay:10.37,2013-05-10 20:31:00,
2013-05-10 15:32:00,50.2,32.7,28.79,NW,315,6.4,6.4,51,0.00,CLR,,0.05,WeatherDisplay:10.37,2013-05-10 20:32:00,
2013-05-10 15:33:00,49.8,31.9,28.79,WNW,292,6.9,6.9,50,0.00,CLR,,0.05,WeatherDisplay:10.37,2013-05-10 20:33:00,
2013-05-10 15:35:00,49.5,31.6,28.79,North,0,8.1,8.1,50,0.00,CLR,,0.05,WeatherDisplay:10.37,2013-05-10 20:35:00,
2013-05-10 15:36:00,49.1,31.7,28.79,NNW,338,6.9,6.9,51,0.00,CLR,,0.05,WeatherDisplay:10.37,2013-05-10 20:36:00,
2013-05-10 15:37:00,49.3,32.4,28.79,North,0,6.9,6.9,52,0.00,CLR,,0.05,WeatherDisplay:10.37,2013-05-10 20:37:00,
2013-05-10 15:38:00,49.5,33.0,28.79,NE,45,3.5,3.5,53,0.00,CLR,,0.05,WeatherDisplay:10.37,2013-05-10 20:38:00,
2013-05-10 15:41:00,49.3,31.9,28.79,NNW,338,6.9,6.9,51,0.00,CLR,,0.05,WeatherDisplay:10.37,2013-05-10 20:41:00,
2013-05-10 15:42:00,49.3,31.9,28.79,NW,315,5.6,5.6,51,0.00,CLR,,0.05,WeatherDisplay:10.37,2013-05-10 20:42:00,
2013-05-10 15:43:00,49.3,31.9,28.79,NNW,338,4.6,4.6,51,0.00,CLR,,0.05,WeatherDisplay:10.37,2013-05-10 20:43:00,
2013-05-10 15:44:00,49.5,32.1,28.79,NNE,22,5.8,5.8,51,0.00,CLR,,0.05,WeatherDisplay:10.37,2013-05-10 20:44:00,
2013-05-10 15:46:00,50.2,33.2,28.79,West,270,4.9,4.9,52,0.00,CLR,,0.05,WeatherDisplay:10.37,2013-05-10 20:46:00,
2013-05-10 15:47:00,50.0,32.6,28.79,WNW,292,5.8,5.8,51,0.00,CLR,,0.05,WeatherDisplay:10.37,2013-05-10 20:47:00,
2013-05-10 15:48:00,50.0,32.6,28.79,West,270,4.6,4.6,51,0.00,CLR,,0.05,WeatherDisplay:10.37,2013-05-10 20:48:00,
2013-05-10 15:49:00,50.0,32.6,28.79,North,0,4.6,4.6,51,0.00,CLR,,0.05,WeatherDisplay:10.37,2013-05-10 20:49:00,
2013-05-10 15:52:00,50.0,33.1,28.79,North,0,4.6,4.6,52,0.00,CLR,,0.05,WeatherDisplay:10.37,2013-05-10 20:52:00,
2013-05-10 15:53:00,49.8,32.4,28.79,North,0,4.6,4.6,51,0.00,CLR,,0.05,WeatherDisplay:10.37,2013-05-10 20:53:00,
2013-05-10 15:54:00,49.6,32.2,28.79,NNE,22,5.8,5.8,51,0.00,CLR,,0.05,WeatherDisplay:10.37,2013-05-10 20:54:00,
2013-05-10 15:58:00,48.9,31.1,28.76,NNW,338,8.1,8.1,50,0.00,CLR,,0.05,WeatherDisplay:10.37,2013-05-10 20:58:00,
2013-05-10 15:59:00,48.6,31.2,28.76,WNW,292,6.9,6.9,51,0.00,CLR,,0.05,WeatherDisplay:10.37,2013-05-10 20:59:00,
2013-05-10 16:00:00,48.6,31.2,28.76,North,0,5.8,5.8,51,0.00,CLR,,0.05,WeatherDisplay:10.37,2013-05-10 21:00:00,
2013-05-10 16:03:00,49.3,32.9,28.76,North,0,5.8,5.8,53,0.00,CLR,,0.05,WeatherDisplay:10.37,2013-05-10 21:03:00,
2013-05-10 16:04:00,49.5,32.6,28.76,WNW,292,3.8,3.8,52,0.00,CLR,,0.05,WeatherDisplay:10.37,2013-05-10 21:04:00,
2013-05-10 16:05:00,49.6,33.2,28.76,NW,315,4.6,4.6,53,0.00,CLR,,0.05,WeatherDisplay:10.37,2013-05-10 21:05:00,
2013-05-10 16:08:00,49.6,32.2,28.76,North,0,4.6,4.6,51,0.00,CLR,,0.05,WeatherDisplay:10.37,2013-05-10 21:08:00,
2013-05-10 16:09:00,49.5,32.1,28.79,North,0,5.9,5.9,51,0.00,CLR,,0.05,WeatherDisplay:10.37,2013-05-10 21:09:00,
2013-05-10 16:10:00,49.5,32.1,28.79,NNW,338,5.8,5.8,51,0.00,CLR,,0.05,WeatherDisplay:10.37,2013-05-10 21:10:00,
2013-05-10 16:11:00,49.3,31.4,28.79,NE,45,5.9,5.9,50,0.00,CLR,,0.05,WeatherDisplay:10.37,2013-05-10 21:11:00,
2013-05-10 16:13:00,49.1,31.7,28.79,NW,315,4.6,4.6,51,0.00,CLR,,0.05,WeatherDisplay:10.37,2013-05-10 21:13:00,
2013-05-10 16:15:00,49.4,32.0,28.79,NNW,342,3.0,6.0,51,0.00,CLR,,0.05,WeatherDisplay:10.37,2013-05-10 21:15:00,
2013-05-10 16:16:00,49.5,32.1,28.79,WNW,292,5.8,5.8,51,0.00,CLR,,0.05,WeatherDisplay:10.37,2013-05-10 21:16:00,
2013-05-10 16:17:00,49.5,32.6,28.79,NE,45,4.6,4.6,52,0.00,CLR,,0.05,WeatherDisplay:10.37,2013-05-10 21:17:00,
2013-05-10 16:18:00,49.5,32.6,28.79,NNE,22,4.6,4.6,52,0.00,CLR,,0.05,WeatherDisplay:10.37,2013-05-10 21:18:00,
2013-05-10 16:20:00,49.5,32.6,28.79,North,351,3.0,5.0,52,0.00,CLR,,0.05,WeatherDisplay:10.37,2013-05-10 21:20:00,
2013-05-10 16:21:00,49.6,32.7,28.79,North,0,3.5,3.5,52,0.00,CLR,,0.05,WeatherDisplay:10.37,2013-05-10 21:21:00,
2013-05-10 16:22:00,49.6,32.7,28.79,NE,45,3.5,3.5,52,0.00,CLR,,0.05,WeatherDisplay:10.37,2013-05-10 21:22:00,
2013-05-10 16:23:00,49.6,32.2,28.79,NNE,22,4.6,4.6,51,0.00,CLR,,0.05,WeatherDisplay:10.37,2013-05-10 21:23:00,
2013-05-10 16:25:00,49.5,31.6,28.79,North,7,5.0,6.0,50,0.00,CLR,,0.05,WeatherDisplay:10.37,2013-05-10 21:25:00,
2013-05-10 16:26:00,49.3,31.9,28.79,North,0,5.8,5.8,51,0.00,CLR,,0.05,WeatherDisplay:10.37,2013-05-10 21:26:00,
2013-05-10 16:27:00,49.5,32.6,28.79,NNW,338,3.3,3.3,52,0.00,CLR,,0.05,WeatherDisplay:10.37,2013-05-10 21:27:00,
2013-05-10 16:29:00,49.5,32.1,28.79,NNE,22,4.6,4.6,51,0.00,CLR,,0.05,WeatherDisplay:10.37,2013-05-10 21:29:00,
2013-05-10 16:30:00,49.5,32.6,28.79,NE,45,2.9,2.9,52,0.00,CLR,,0.05,WeatherDisplay:10.37,2013-05-10 21:30:00,
2013-05-10 16:31:00,49.8,33.4,28.79,North,0,3.5,3.5,53,0.00,CLR,,0.05,WeatherDisplay:10.37,2013-05-10 21:31:00,
2013-05-10 16:32:00,49.6,32.2,28.79,NNE,22,4.6,4.6,51,0.00,CLR,,0.05,WeatherDisplay:10.37,2013-05-10 21:32:00,
2013-05-10 16:33:00,49.8,32.4,28.79,NNE,22,4.6,4.6,51,0.00,CLR,,0.05,WeatherDisplay:10.37,2013-05-10 21:33:00,
2013-05-10 16:35:00,49.6,31.7,28.79,North,0,5.8,5.8,50,0.00,CLR,,0.05,WeatherDisplay:10.37,2013-05-10 21:35:00,
2013-05-10 16:36:00,49.5,32.1,28.79,NNE,22,5.8,5.8,51,0.00,CLR,,0.05,WeatherDisplay:10.37,2013-05-10 21:36:00,
2013-05-10 16:37:00,49.5,31.6,28.79,NNW,338,6.0,6.0,50,0.00,CLR,,0.05,WeatherDisplay:10.37,2013-05-10 21:37:00,
2013-05-10 16:39:00,49.3,31.4,28.79,WNW,292,5.8,5.8,50,0.00,CLR,,0.05,WeatherDisplay:10.37,2013-05-10 21:39:00,
2013-05-10 16:40:00,49.6,32.2,28.79,NNE,22,3.5,3.5,51,0.00,CLR,,0.05,WeatherDisplay:10.37,2013-05-10 21:40:00,
2013-05-10 16:41:00,49.6,32.2,28.79,ENE,68,2.3,2.3,51,0.00,CLR,,0.05,WeatherDisplay:10.37,2013-05-10 21:41:00,
2013-05-10 16:42:00,49.8,32.4,28.79,North,0,3.5,3.5,51,0.00,CLR,,0.05,WeatherDisplay:10.37,2013-05-10 21:42:00,
2013-05-10 16:44:00,49.5,31.6,28.79,NNW,338,5.8,5.8,50,0.00,CLR,,0.05,WeatherDisplay:10.37,2013-05-10 21:44:00,
2013-05-10 16:46:00,49.5,31.6,28.79,NE,45,4.6,4.6,50,0.00,CLR,,0.05,WeatherDisplay:10.37,2013-05-10 21:46:00,
2013-05-10 16:47:00,49.6,32.2,28.79,North,0,5.6,5.6,51,0.00,CLR,,0.05,WeatherDisplay:10.37,2013-05-10 21:47:00,
2013-05-10 16:49:00,49.3,31.4,28.79,NNE,22,5.8,5.8,50,0.00,CLR,,0.05,WeatherDisplay:10.37,2013-05-10 21:49:00,
2013-05-10 16:51:00,49.1,31.7,28.79,NE,45,5.8,5.8,51,0.00,CLR,,0.05,WeatherDisplay:10.37,2013-05-10 21:51:00,
2013-05-10 16:52:00,49.1,31.7,28.79,NNE,22,3.8,3.8,51,0.00,CLR,,0.05,WeatherDisplay:10.37,2013-05-10 21:52:00,
2013-05-10 16:54:00,49.3,31.4,28.79,North,0,4.6,4.6,50,0.00,CLR,,0.05,WeatherDisplay:10.37,2013-05-10 21:54:00,
2013-05-10 16:56:00,49.3,31.9,28.79,NE,45,3.5,3.6,51,0.00,CLR,,0.05,WeatherDisplay:10.37,2013-05-10 21:56:00,
2013-05-10 16:57:00,49.3,31.9,28.79,North,0,3.5,3.5,51,0.00,CLR,,0.05,WeatherDisplay:10.37,2013-05-10 21:57:00,
2013-05-10 16:58:00,49.3,31.9,28.79,ENE,68,3.5,3.5,51,0.00,CLR,,0.05,WeatherDisplay:10.37,2013-05-10 21:58:00,
2013-05-10 16:59:00,49.5,32.6,28.79,NW,315,2.3,2.3,52,0.00,CLR,,0.05,WeatherDisplay:10.37,2013-05-10 21:59:00,
2013-05-10 17:03:00,49.8,32.9,28.79,ENE,68,2.0,2.0,52,0.00,CLR,,0.05,WeatherDisplay:10.37,2013-05-10 22:03:00,
2013-05-10 17:04:00,50.0,33.1,28.79,NE,45,4.6,4.6,52,0.00,CLR,,0.05,WeatherDisplay:10.37,2013-05-10 22:04:00,
2013-05-10 17:05:00,50.2,33.7,28.79,NNE,22,3.5,3.5,53,0.00,CLR,,0.05,WeatherDisplay:10.37,2013-05-10 22:05:00,
2013-05-10 17:08:00,51.4,33.9,28.79,ENE,68,4.6,4.6,51,0.00,CLR,,0.05,WeatherDisplay:10.37,2013-05-10 22:08:00,
2013-05-10 17:09:00,51.3,33.2,28.79,NNE,22,4.6,4.6,50,0.00,CLR,,0.05,WeatherDisplay:10.37,2013-05-10 22:09:00,
2013-05-10 17:10:00,51.3,33.2,28.79,WNW,292,4.6,4.6,50,0.00,CLR,,0.05,WeatherDisplay:10.37,2013-05-10 22:10:00,
2013-05-10 17:14:00,51.8,32.7,28.79,West,270,4.6,4.6,48,0.00,CLR,,0.05,WeatherDisplay:10.37,2013-05-10 22:14:00,
2013-05-10 17:16:00,52.7,33.5,28.79,SSE,158,1.4,0.0,48,0.00,CLR,,0.05,WeatherDisplay:10.37,2013-05-10 22:16:00,
2013-05-10 17:19:00,52.5,32.9,28.79,East,90,2.3,2.3,47,0.00,CLR,,0.05,WeatherDisplay:10.37,2013-05-10 22:19:00,
2013-05-10 17:20:00,52.5,32.9,28.79,SSE,158,2.4,0.0,47,0.00,CLR,,0.05,WeatherDisplay:10.37,2013-05-10 22:20:00,
2013-05-10 17:22:00,52.3,32.7,28.79,NE,45,2.3,2.3,47,0.00,CLR,,0.05,WeatherDisplay:10.37,2013-05-10 22:22:00,
2013-05-10 17:24:00,52.0,32.4,28.79,SSW,202,2.3,2.3,47,0.00,CLR,,0.05,WeatherDisplay:10.37,2013-05-10 22:24:00,
2013-05-10 17:25:00,51.8,32.2,28.76,South,180,2.3,2.3,47,0.00,CLR,,0.05,WeatherDisplay:10.37,2013-05-10 22:25:00,
2013-05-10 17:27:00,51.3,31.2,28.76,ESE,112,2.6,2.6,46,0.00,CLR,,0.05,WeatherDisplay:10.37,2013-05-10 22:27:00,
2013-05-10 17:30:00,51.7,32.1,28.76,ESE,110,1.0,3.0,47,0.00,CLR,,0.05,WeatherDisplay:10.37,2013-05-10 22:30:00,
2013-05-10 17:31:00,52.3,32.7,28.76,North,0,1.2,0.0,47,0.00,CLR,,0.05,WeatherDisplay:10.37,2013-05-10 22:31:00,
2013-05-10 17:32:00,52.3,32.7,28.76,North,0,2.4,0.0,47,0.00,CLR,,0.05,WeatherDisplay:10.37,2013-05-10 22:32:00,
2013-05-10 17:35:00,52.0,31.9,28.76,NE,42,2.0,2.0,46,0.00,CLR,,0.05,WeatherDisplay:10.37,2013-05-10 22:35:00,
2013-05-10 17:36:00,51.4,31.3,28.76,West,270,3.5,3.5,46,0.00,CLR,,0.05,WeatherDisplay:10.37,2013-05-10 22:36:00,
2013-05-10 17:38:00,51.3,31.2,28.76,West,270,3.5,3.5,46,0.00,CLR,,0.05,WeatherDisplay:10.37,2013-05-10 22:38:00,
2013-05-10 17:40:00,51.1,31.0,28.76,WNW,292,1.2,1.2,46,0.00,CLR,,0.05,WeatherDisplay:10.37,2013-05-10 22:40:00,
2013-05-10 17:41:00,51.1,31.0,28.76,East,90,1.2,0.0,46,0.00,CLR,,0.05,WeatherDisplay:10.37,2013-05-10 22:41:00,
2013-05-10 17:42:00,50.7,30.7,28.76,East,90,1.2,0.0,46,0.00,CLR,,0.05,WeatherDisplay:10.37,2013-05-10 22:42:00,
2013-05-10 17:43:00,50.4,30.9,28.76,WSW,248,0.0,0.0,47,0.00,CLR,,0.05,WeatherDisplay:10.37,2013-05-10 22:43:00,
2013-05-10 17:45:00,50.4,30.9,28.76,WSW,248,0.0,0.0,47,0.00,CLR,,0.05,WeatherDisplay:10.37,2013-05-10 22:45:00,
2013-05-10 17:46:00,50.7,31.2,28.76,WSW,248,0.0,0.0,47,0.00,CLR,,0.05,WeatherDisplay:10.37,2013-05-10 22:46:00,
2013-05-10 17:47:00,50.9,31.9,28.76,WSW,248,0.0,0.0,48,0.00,CLR,,0.05,WeatherDisplay:10.37,2013-05-10 22:47:00,
2013-05-10 17:50:00,51.6,32.6,28.76,WNW,292,0.0,0.0,48,0.00,CLR,,0.05,WeatherDisplay:10.37,2013-05-10 22:50:00,
2013-05-10 17:51:00,51.8,32.2,28.76,WNW,292,0.0,0.0,47,0.00,CLR,,0.05,WeatherDisplay:10.37,2013-05-10 22:51:00,
2013-05-10 17:52:00,51.8,32.2,28.76,WNW,292,0.0,0.0,47,0.00,CLR,,0.05,WeatherDisplay:10.37,2013-05-10 22:52:00,
2013-05-10 17:55:00,51.8,32.2,28.76,WSW,248,0.9,0.0,47,0.00,CLR,,0.05,WeatherDisplay:10.37,2013-05-10 22:55:00,
2013-05-10 17:57:00,52.0,32.9,28.76,West,270,0.0,0.0,48,0.00,CLR,,0.05,WeatherDisplay:10.37,2013-05-10 22:57:00,
2013-05-10 17:59:00,52.0,32.9,28.76,WSW,248,0.0,0.0,48,0.00,CLR,,0.05,WeatherDisplay:10.37,2013-05-10 22:59:00,
2013-05-10 18:00:00,51.6,32.0,28.76,WSW,248,0.0,0.0,47,0.00,CLR,,0.05,WeatherDisplay:10.37,2013-05-10 23:00:00,
2013-05-10 18:01:00,51.6,32.0,28.76,WSW,248,0.0,0.0,47,0.00,CLR,,0.05,WeatherDisplay:10.37,2013-05-10 23:01:00,
2013-05-10 18:02:00,51.4,32.4,28.76,WSW,248,1.6,0.0,48,0.00,CLR,,0.05,WeatherDisplay:10.37,2013-05-10 23:02:00,
2013-05-10 18:03:00,51.3,31.7,28.76,WSW,248,1.2,1.2,47,0.00,CLR,,0.05,WeatherDisplay:10.37,2013-05-10 23:03:00,
2013-05-10 18:04:00,51.1,31.5,28.76,West,270,1.2,0.0,47,0.00,CLR,,0.05,WeatherDisplay:10.37,2013-05-10 23:04:00,
2013-05-10 18:06:00,50.5,31.0,28.76,South,180,2.3,0.0,47,0.00,CLR,,0.05,WeatherDisplay:10.37,2013-05-10 23:06:00,
2013-05-10 18:07:00,50.4,30.9,28.76,South,180,1.6,0.0,47,0.00,CLR,,0.05,WeatherDisplay:10.37,2013-05-10 23:07:00,
2013-05-10 18:08:00,50.2,30.7,28.76,South,180,2.3,2.3,47,0.00,CLR,,0.05,WeatherDisplay:10.37,2013-05-10 23:08:00,
2013-05-10 18:09:00,49.8,30.9,28.73,SW,225,6.9,6.9,48,0.00,CLR,,0.05,WeatherDisplay:10.37,2013-05-10 23:09:00,
2013-05-10 18:11:00,49.5,30.6,28.73,South,180,3.5,3.5,48,0.00,CLR,,0.05,WeatherDisplay:10.37,2013-05-10 23:11:00,
2013-05-10 18:12:00,49.3,30.9,28.73,South,180,2.3,2.3,49,0.00,CLR,,0.05,WeatherDisplay:10.37,2013-05-10 23:12:00,
2013-05-10 18:13:00,49.1,30.7,28.73,South,180,1.2,1.4,49,0.00,CLR,,0.05,WeatherDisplay:10.37,2013-05-10 23:13:00,
2013-05-10 18:14:00,49.3,30.9,28.73,SSW,202,3.5,3.5,49,0.00,CLR,,0.05,WeatherDisplay:10.37,2013-05-10 23:14:00,
2013-05-10 18:16:00,49.5,31.6,28.73,SSE,158,2.6,2.6,50,0.00,CLR,,0.05,WeatherDisplay:10.37,2013-05-10 23:16:00,
2013-05-10 18:17:00,49.5,31.6,28.73,SSW,202,4.6,4.6,50,0.00,CLR,,0.05,WeatherDisplay:10.37,2013-05-10 23:17:00,
2013-05-10 18:18:00,49.6,31.7,28.73,SSE,158,4.0,4.0,50,0.00,CLR,,0.05,WeatherDisplay:10.37,2013-05-10 23:18:00,
2013-05-10 18:20:00,49.6,31.2,28.73,SSW,202,4.6,4.6,49,0.00,CLR,,0.05,WeatherDisplay:10.37,2013-05-10 23:20:00,
2013-05-10 18:22:00,50.2,31.7,28.73,South,180,2.3,2.3,49,0.00,CLR,,0.05,WeatherDisplay:10.37,2013-05-10 23:22:00,
2013-05-10 18:23:00,50.2,31.7,28.73,South,180,4.7,4.7,49,0.00,CLR,,0.05,WeatherDisplay:10.37,2013-05-10 23:23:00,
2013-05-10 18:24:00,50.2,31.7,28.73,SSW,202,4.6,4.6,49,0.00,CLR,,0.05,WeatherDisplay:10.37,2013-05-10 23:24:00,
2013-05-10 18:25:00,50.2,31.7,28.73,SSW,202,4.6,4.6,49,0.00,CLR,,0.05,WeatherDisplay:10.37,2013-05-10 23:25:00,
2013-05-10 18:28:00,50.2,31.7,28.73,SSE,158,4.6,4.6,49,0.00,CLR,,0.05,WeatherDisplay:10.37,2013-05-10 23:28:00,
2013-05-10 18:29:00,50.2,31.7,28.73,SW,225,3.8,3.8,49,0.00,CLR,,0.05,WeatherDisplay:10.37,2013-05-10 23:29:00,
2013-05-10 18:30:00,50.3,31.8,28.73,South,191,2.0,5.0,49,0.00,CLR,,0.05,WeatherDisplay:10.37,2013-05-10 23:30:00,
2013-05-10 18:34:00,50.5,31.0,28.73,SSW,202,4.6,4.6,47,0.00,CLR,,0.05,WeatherDisplay:10.37,2013-05-10 23:34:00,
2013-05-10 18:35:00,50.7,31.7,28.73,NNW,338,2.6,2.6,48,0.00,CLR,,0.05,WeatherDisplay:10.37,2013-05-10 23:35:00,
2013-05-10 18:39:00,51.1,31.5,28.73,South,180,2.3,2.3,47,0.00,CLR,,0.05,WeatherDisplay:10.37,2013-05-10 23:39:00,
2013-05-10 18:40:00,50.9,31.4,28.73,West,270,5.8,5.8,47,0.00,CLR,,0.05,WeatherDisplay:10.37,2013-05-10 23:40:00,
2013-05-10 18:41:00,50.9,31.4,28.73,SSW,202,5.8,5.8,47,0.00,CLR,,0.05,WeatherDisplay:10.37,2013-05-10 23:41:00,
2013-05-10 18:45:00,50.5,31.0,28.73,SW,225,5.8,5.8,47,0.00,CLR,,0.05,WeatherDisplay:10.37,2013-05-10 23:45:00,
2013-05-10 18:46:00,50.5,31.0,28.73,WSW,248,4.6,4.6,47,0.00,CLR,,0.05,WeatherDisplay:10.37,2013-05-10 23:46:00,
2013-05-10 18:50:00,51.1,31.5,28.73,West,270,2.3,2.3,47,0.00,CLR,,0.05,WeatherDisplay:10.37,2013-05-10 23:50:00,
2013-05-10 18:51:00,51.1,31.5,28.73,WSW,248,2.3,2.3,47,0.00,CLR,,0.05,WeatherDisplay:10.37,2013-05-10 23:51:00,
2013-05-10 18:56:00,51.1,31.0,28.73,West,270,3.5,3.5,46,0.00,CLR,,0.05,WeatherDisplay:10.37,2013-05-10 23:56:00,
2013-05-10 18:57:00,50.9,30.8,28.73,South,180,2.2,0.0,46,0.00,CLR,,0.05,WeatherDisplay:10.37,2013-05-10 23:57:00,
2013-05-10 19:01:00,51.1,31.0,28.73,NNW,338,1.2,0.0,46,0.00,CLR,,0.05,WeatherDisplay:10.37,2013-05-11 00:01:00,
2013-05-10 19:02:00,51.3,31.2,28.73,West,270,1.2,1.2,46,0.00,CLR,,0.05,WeatherDisplay:10.37,2013-05-11 00:02:00,
2013-05-10 19:06:00,51.4,30.2,28.73,West,270,3.5,3.5,44,0.00,CLR,,0.05,WeatherDisplay:10.37,2013-05-11 00:06:00,
2013-05-10 19:07:00,51.4,30.8,28.73,WSW,248,2.2,2.2,45,0.00,CLR,,0.05,WeatherDisplay:10.37,2013-05-11 00:07:00,
2013-05-10 19:11:00,50.9,30.3,28.73,NNW,338,2.6,2.6,45,0.00,CLR,,0.05,WeatherDisplay:10.37,2013-05-11 00:11:00,
2013-05-10 19:12:00,50.7,30.1,28.73,SSW,202,2.3,2.3,45,0.00,CLR,,0.05,WeatherDisplay:10.37,2013-05-11 00:12:00,
2013-05-10 19:13:00,50.4,30.3,28.73,WSW,248,2.9,2.9,46,0.00,CLR,,0.05,WeatherDisplay:10.37,2013-05-11 00:13:00,
2013-05-10 19:16:00,49.6,30.2,28.73,WSW,248,2.3,2.3,47,0.00,CLR,,0.05,WeatherDisplay:10.37,2013-05-11 00:16:00,
2013-05-10 19:17:00,49.6,30.2,28.73,SW,225,2.3,2.3,47,0.00,CLR,,0.05,WeatherDisplay:10.37,2013-05-11 00:17:00,
2013-05-10 19:18:00,49.3,30.4,28.73,WSW,248,1.2,1.2,48,0.00,CLR,,0.05,WeatherDisplay:10.37,2013-05-11 00:18:00,
2013-05-10 19:21:00,49.1,30.2,28.73,West,270,2.3,2.3,48,0.00,CLR,,0.05,WeatherDisplay:10.37,2013-05-11 00:21:00,
2013-05-10 19:22:00,48.9,30.1,28.73,West,270,2.3,2.3,48,0.00,CLR,,0.05,WeatherDisplay:10.37,2013-05-11 00:22:00,
2013-05-10 19:23:00,48.9,30.1,28.73,West,270,2.3,2.3,48,0.00,CLR,,0.05,WeatherDisplay:10.37,2013-05-11 00:23:00,
2013-05-10 19:26:00,48.6,30.2,28.73,SSW,202,2.0,2.0,49,0.00,CLR,,0.05,WeatherDisplay:10.37,2013-05-11 00:26:00,
2013-05-10 19:27:00,48.4,30.1,28.73,WSW,248,3.5,3.5,49,0.00,CLR,,0.05,WeatherDisplay:10.37,2013-05-11 00:27:00,
2013-05-10 19:28:00,48.4,30.1,28.73,SW,225,2.3,2.3,49,0.00,CLR,,0.05,WeatherDisplay:10.37,2013-05-11 00:28:00,
2013-05-10 19:31:00,48.0,30.2,28.73,South,180,2.3,2.3,50,0.00,CLR,,0.05,WeatherDisplay:10.37,2013-05-11 00:31:00,
2013-05-10 19:32:00,47.8,30.1,28.73,WSW,248,1.2,1.4,50,0.00,CLR,,0.05,WeatherDisplay:10.37,2013-05-11 00:32:00,
2013-05-10 19:33:00,47.8,30.1,28.73,SW,225,3.5,3.5,50,0.00,CLR,,0.05,WeatherDisplay:10.37,2013-05-11 00:33:00,
2013-05-10 19:34:00,47.8,30.1,28.73,SW,225,2.3,2.3,50,0.00,CLR,,0.05,WeatherDisplay:10.37,2013-05-11 00:34:00,
2013-05-10 19:37:00,47.7,30.4,28.73,SSW,202,1.2,1.2,51,0.00,CLR,,0.05,WeatherDisplay:10.37,2013-05-11 00:37:00,
2013-05-10 19:39:00,47.5,30.2,28.73,SSW,202,2.0,0.0,51,0.00,CLR,,0.05,WeatherDisplay:10.37,2013-05-11 00:39:00,
2013-05-10 19:40:00,47.3,30.1,28.73,West,270,3.5,0.0,51,0.00,CLR,,0.05,WeatherDisplay:10.37,2013-05-11 00:40:00,
2013-05-10 19:42:00,47.3,30.1,28.73,WSW,248,1.2,0.0,51,0.00,CLR,,0.05,WeatherDisplay:10.37,2013-05-11 00:42:00,
2013-05-10 19:44:00,47.3,30.5,28.73,SW,225,0.0,0.0,52,0.00,CLR,,0.05,WeatherDisplay:10.37,2013-05-11 00:44:00,
2013-05-10 19:45:00,47.1,30.4,28.73,SSW,202,1.2,0.0,52,0.00,CLR,,0.05,WeatherDisplay:10.37,2013-05-11 00:45:00,
2013-05-10 19:47:00,46.9,30.2,28.73,South,180,1.6,0.0,52,0.00,CLR,,0.05,WeatherDisplay:10.37,2013-05-11 00:47:00,
2013-05-10 19:49:00,46.6,30.3,28.73,SW,225,1.2,1.2,53,0.00,CLR,,0.05,WeatherDisplay:10.37,2013-05-11 00:49:00,
2013-05-10 19:50:00,46.6,30.3,28.73,SW,233,1.0,3.0,53,0.00,CLR,,0.05,WeatherDisplay:10.37,2013-05-11 00:50:00,
2013-05-10 19:53:00,46.2,30.0,28.73,WSW,248,2.3,2.3,53,0.00,CLR,,0.05,WeatherDisplay:10.37,2013-05-11 00:53:00,
2013-05-10 19:54:00,46.0,30.3,28.70,WSW,248,2.3,2.3,54,0.00,CLR,,0.05,WeatherDisplay:10.37,2013-05-11 00:54:00,
2013-05-10 19:55:00,46.1,30.3,28.72,SW,229,1.0,3.0,54,0.00,CLR,,0.05,WeatherDisplay:10.37,2013-05-11 00:55:00,
2013-05-10 19:59:00,45.7,30.4,28.70,South,180,2.3,2.3,55,0.00,CLR,,0.05,WeatherDisplay:10.37,2013-05-11 00:59:00,
2013-05-10 20:00:00,45.5,30.3,28.70,WNW,292,1.2,0.0,55,0.00,CLR,,0.05,WeatherDisplay:10.37,2013-05-11 01:00:00,
2013-05-10 20:05:00,44.8,30.0,28.70,SW,225,1.2,0.0,56,0.00,CLR,,0.05,WeatherDisplay:10.37,2013-05-11 01:05:00,
2013-05-10 20:10:00,44.1,29.8,28.73,West,270,1.2,0.0,57,0.00,CLR,,0.05,WeatherDisplay:10.37,2013-05-11 01:10:00,
2013-05-10 20:11:00,43.9,30.0,28.73,SSW,202,1.2,0.0,58,0.00,CLR,,0.05,WeatherDisplay:10.37,2013-05-11 01:11:00,
2013-05-10 20:15:00,43.5,30.1,28.73,WSW,248,1.2,0.0,59,0.00,CLR,,0.05,WeatherDisplay:10.37,2013-05-11 01:15:00,
2013-05-10 20:16:00,43.5,30.1,28.73,West,270,1.2,0.0,59,0.00,CLR,,0.05,WeatherDisplay:10.37,2013-05-11 01:16:00,
2013-05-10 20:20:00,43.0,30.4,28.73,South,180,1.2,0.0,61,0.00,CLR,,0.05,WeatherDisplay:10.37,2013-05-11 01:20:00,
2013-05-10 20:21:00,43.0,30.4,28.73,SW,225,1.2,0.0,61,0.00,CLR,,0.05,WeatherDisplay:10.37,2013-05-11 01:21:00,
2013-05-10 20:22:00,43.0,30.4,28.73,SSW,202,1.2,0.0,61,0.00,CLR,,0.05,WeatherDisplay:10.37,2013-05-11 01:22:00,
2013-05-10 20:25:00,42.6,30.5,28.73,West,270,0.0,0.0,62,0.00,CLR,,0.05,WeatherDisplay:10.37,2013-05-11 01:25:00,
2013-05-10 20:26:00,42.4,30.3,28.73,WSW,248,0.0,0.0,62,0.00,CLR,,0.05,WeatherDisplay:10.37,2013-05-11 01:26:00,
2013-05-10 20:27:00,42.4,30.3,28.73,WSW,248,0.0,0.0,62,0.00,CLR,,0.05,WeatherDisplay:10.37,2013-05-11 01:27:00,
2013-05-10 20:30:00,42.1,30.4,28.73,West,270,0.0,0.0,63,0.00,CLR,,0.05,WeatherDisplay:10.37,2013-05-11 01:30:00,
2013-05-10 20:31:00,42.1,30.4,28.73,West,270,0.0,0.0,63,0.00,CLR,,0.05,WeatherDisplay:10.37,2013-05-11 01:31:00,
2013-05-10 20:32:00,41.9,30.2,28.73,West,270,0.0,0.0,63,0.00,CLR,,0.05,WeatherDisplay:10.37,2013-05-11 01:32:00,
2013-05-10 20:33:00,41.9,30.2,28.73,West,270,0.0,0.0,63,0.00,CLR,,0.05,WeatherDisplay:10.37,2013-05-11 01:33:00,
2013-05-10 20:36:00,41.5,30.3,28.73,West,270,0.0,0.0,64,0.00,CLR,,0.05,WeatherDisplay:10.37,2013-05-11 01:36:00,
2013-05-10 20:37:00,41.5,30.3,28.73,West,270,0.0,0.0,64,0.00,CLR,,0.05,WeatherDisplay:10.37,2013-05-11 01:37:00,
2013-05-10 20:38:00,41.4,30.1,28.73,West,270,0.0,0.0,64,0.00,CLR,,0.05,WeatherDisplay:10.37,2013-05-11 01:38:00,
2013-05-10 20:41:00,41.2,30.3,28.73,West,270,0.0,0.0,65,0.00,CLR,,0.05,WeatherDisplay:10.37,2013-05-11 01:41:00,
2013-05-10 20:42:00,41.0,30.1,28.73,West,270,0.0,0.0,65,0.00,CLR,,0.05,WeatherDisplay:10.37,2013-05-11 01:42:00,
2013-05-10 20:43:00,41.0,30.1,28.73,West,270,0.0,0.0,65,0.00,CLR,,0.05,WeatherDisplay:10.37,2013-05-11 01:43:00,
2013-05-10 20:46:00,41.0,30.5,28.73,West,270,0.0,0.0,66,0.00,CLR,,0.05,WeatherDisplay:10.37,2013-05-11 01:46:00,
2013-05-10 20:47:00,41.0,30.5,28.73,West,270,0.0,0.0,66,0.00,CLR,,0.05,WeatherDisplay:10.37,2013-05-11 01:47:00,
2013-05-10 20:48:00,41.0,30.5,28.73,West,270,0.0,0.0,66,0.00,CLR,,0.05,WeatherDisplay:10.37,2013-05-11 01:48:00,
2013-05-10 20:49:00,40.8,30.7,28.73,West,270,0.0,0.0,67,0.00,CLR,,0.05,WeatherDisplay:10.37,2013-05-11 01:49:00,
2013-05-10 20:51:00,40.6,31.3,28.73,West,270,0.0,0.0,69,0.00,CLR,,0.05,WeatherDisplay:10.37,2013-05-11 01:51:00,
2013-05-10 20:52:00,40.6,31.3,28.73,West,270,0.0,0.0,69,0.00,CLR,,0.05,WeatherDisplay:10.37,2013-05-11 01:52:00,
2013-05-10 20:53:00,40.5,31.1,28.73,West,270,0.0,0.0,69,0.00,CLR,,0.05,WeatherDisplay:10.37,2013-05-11 01:53:00,
2013-05-10 20:54:00,40.3,30.9,28.73,West,270,0.0,0.0,69,0.00,CLR,,0.05,WeatherDisplay:10.37,2013-05-11 01:54:00,
2013-05-10 20:57:00,40.1,30.7,28.73,West,270,0.0,0.0,69,0.00,CLR,,0.05,WeatherDisplay:10.37,2013-05-11 01:57:00,
2013-05-10 20:58:00,40.1,30.7,28.73,West,270,0.0,0.0,69,0.00,CLR,,0.05,WeatherDisplay:10.37,2013-05-11 01:58:00,
2013-05-10 20:59:00,39.9,30.6,28.73,West,270,0.0,0.0,69,0.00,CLR,,0.05,WeatherDisplay:10.37,2013-05-11 01:59:00,
2013-05-10 21:00:00,39.9,30.6,28.73,West,270,0.0,0.0,69,0.00,CLR,,0.05,WeatherDisplay:10.37,2013-05-11 02:00:00,
2013-05-10 21:02:00,39.9,30.9,28.73,West,270,0.0,0.0,70,0.00,CLR,,0.05,WeatherDisplay:10.37,2013-05-11 02:02:00,
2013-05-10 21:03:00,40.1,31.4,28.73,West,270,0.0,0.0,71,0.00,CLR,,0.05,WeatherDisplay:10.37,2013-05-11 02:03:00,
2013-05-10 21:04:00,40.1,31.8,28.73,West,270,0.0,0.0,72,0.00,CLR,,0.05,WeatherDisplay:10.37,2013-05-11 02:04:00,
2013-05-10 21:06:00,40.1,31.8,28.73,West,270,0.0,0.0,72,0.00,CLR,,0.05,WeatherDisplay:10.37,2013-05-11 02:06:00,
2013-05-10 21:09:00,39.9,31.3,28.73,West,270,0.0,0.0,71,0.00,CLR,,0.05,WeatherDisplay:10.37,2013-05-11 02:09:00,
2013-05-10 21:10:00,39.7,31.1,28.73,West,270,0.0,0.0,71,0.00,CLR,,0.05,WeatherDisplay:10.37,2013-05-11 02:10:00,
2013-05-10 21:12:00,39.4,30.8,28.73,West,270,0.0,0.0,71,0.00,CLR,,0.05,WeatherDisplay:10.37,2013-05-11 02:12:00,
2013-05-10 21:14:00,38.8,30.6,28.73,West,270,0.0,0.0,72,0.00,CLR,,0.05,WeatherDisplay:10.37,2013-05-11 02:14:00,
2013-05-10 21:15:00,38.7,30.4,28.73,West,270,0.0,0.0,72,0.00,CLR,,0.05,WeatherDisplay:10.37,2013-05-11 02:15:00,
2013-05-10 21:17:00,38.5,30.2,28.73,West,270,0.0,0.0,72,0.00,CLR,,0.05,WeatherDisplay:10.37,2013-05-11 02:17:00,
2013-05-10 21:19:00,38.1,30.2,28.73,West,270,0.0,0.0,73,0.00,CLR,,0.05,WeatherDisplay:10.37,2013-05-11 02:19:00,
2013-05-10 21:20:00,38.1,30.2,28.73,West,270,0.0,0.0,73,0.00,CLR,,0.05,WeatherDisplay:10.37,2013-05-11 02:20:00,
2013-05-10 21:22:00,37.9,30.4,28.73,West,270,0.0,0.0,74,0.00,CLR,,0.05,WeatherDisplay:10.37,2013-05-11 02:22:00,
2013-05-10 21:24:00,37.8,30.2,28.73,WNW,292,0.0,0.0,74,0.00,CLR,,0.05,WeatherDisplay:10.37,2013-05-11 02:24:00,
2013-05-10 21:25:00,37.6,30.0,28.73,WNW,292,0.0,0.0,74,0.00,CLR,,0.05,WeatherDisplay:10.37,2013-05-11 02:25:00,
2013-05-10 21:26:00,37.6,30.0,28.73,WNW,292,0.0,0.0,74,0.00,CLR,,0.05,WeatherDisplay:10.37,2013-05-11 02:26:00,
2013-05-10 21:27:00,37.6,30.0,28.73,WNW,292,0.0,0.0,74,0.00,CLR,,0.05,WeatherDisplay:10.37,2013-05-11 02:27:00,
2013-05-10 21:29:00,37.4,29.9,28.73,WNW,292,0.0,0.0,74,0.00,CLR,,0.05,WeatherDisplay:10.37,2013-05-11 02:29:00,
2013-05-10 21:30:00,37.4,29.9,28.73,WNW,288,0.0,0.0,74,0.00,CLR,,0.05,WeatherDisplay:10.37,2013-05-11 02:30:00,
2013-05-10 21:31:00,37.2,30.0,28.73,WNW,292,0.0,0.0,75,0.00,CLR,,0.05,WeatherDisplay:10.37,2013-05-11 02:31:00,
2013-05-10 21:33:00,37.2,30.0,28.73,WNW,292,0.0,0.0,75,0.00,CLR,,0.05,WeatherDisplay:10.37,2013-05-11 02:33:00,
2013-05-10 21:34:00,37.2,30.0,28.73,WNW,292,0.0,0.0,75,0.00,CLR,,0.05,WeatherDisplay:10.37,2013-05-11 02:34:00,
2013-05-10 21:35:00,37.2,30.0,28.73,WNW,292,0.0,0.0,75,0.00,CLR,,0.05,WeatherDisplay:10.37,2013-05-11 02:35:00,
2013-05-10 21:36:00,37.0,29.8,28.73,WNW,292,0.0,0.0,75,0.00,CLR,,0.05,WeatherDisplay:10.37,2013-05-11 02:36:00,
2013-05-10 21:37:00,37.0,29.8,28.73,WNW,292,0.0,0.0,75,0.00,CLR,,0.05,WeatherDisplay:10.37,2013-05-11 02:37:00,
2013-05-10 21:38:00,37.0,30.2,28.73,WNW,292,0.0,0.0,76,0.00,CLR,,0.05,WeatherDisplay:10.37,2013-05-11 02:38:00,
2013-05-10 21:39:00,37.0,29.8,28.73,WNW,292,0.0,0.0,75,0.00,CLR,,0.05,WeatherDisplay:10.37,2013-05-11 02:39:00,
2013-05-10 21:40:00,36.9,29.7,28.73,WNW,292,0.0,0.0,75,0.00,CLR,,0.05,WeatherDisplay:10.37,2013-05-11 02:40:00,
2013-05-10 21:41:00,36.9,29.7,28.73,WNW,292,0.0,0.0,75,0.00,CLR,,0.05,WeatherDisplay:10.37,2013-05-11 02:41:00,
2013-05-10 21:42:00,36.9,29.7,28.73,WNW,292,0.0,0.0,75,0.00,CLR,,0.05,WeatherDisplay:10.37,2013-05-11 02:42:00,
2013-05-10 21:44:00,36.7,29.8,28.73,WNW,292,0.0,0.0,76,0.00,CLR,,0.05,WeatherDisplay:10.37,2013-05-11 02:44:00,
2013-05-10 21:45:00,36.7,29.8,28.73,WNW,292,0.0,0.0,76,0.00,CLR,,0.05,WeatherDisplay:10.37,2013-05-11 02:45:00,
2013-05-10 21:47:00,36.5,30.0,28.73,WNW,292,0.0,0.0,77,0.00,CLR,,0.05,WeatherDisplay:10.37,2013-05-11 02:47:00,
2013-05-10 21:49:00,36.3,29.8,28.73,WNW,292,0.0,0.0,77,0.00,CLR,,0.05,WeatherDisplay:10.37,2013-05-11 02:49:00,
2013-05-10 21:50:00,36.3,29.8,28.73,WNW,292,0.0,0.0,77,0.00,CLR,,0.05,WeatherDisplay:10.37,2013-05-11 02:50:00,
2013-05-10 21:52:00,36.1,29.6,28.73,WNW,292,0.0,0.0,77,0.00,CLR,,0.05,WeatherDisplay:10.37,2013-05-11 02:52:00,
2013-05-10 21:55:00,35.8,29.6,28.73,WNW,292,0.0,0.0,78,0.00,CLR,,0.05,WeatherDisplay:10.37,2013-05-11 02:55:00,
2013-05-10 21:56:00,35.8,29.3,28.73,WNW,292,0.0,0.0,77,0.00,CLR,,0.05,WeatherDisplay:10.37,2013-05-11 02:56:00,
2013-05-10 21:57:00,35.6,29.1,28.73,WNW,292,0.0,0.0,77,0.00,CLR,,0.05,WeatherDisplay:10.37,2013-05-11 02:57:00,
2013-05-10 22:00:00,35.4,29.6,28.73,WNW,292,0.0,0.0,79,0.00,CLR,,0.05,WeatherDisplay:10.37,2013-05-11 03:00:00,
2013-05-10 22:01:00,35.2,29.4,28.73,WNW,292,0.0,0.0,79,0.00,CLR,,0.05,WeatherDisplay:10.37,2013-05-11 03:01:00,
2013-05-10 22:02:00,35.2,29.4,28.73,WNW,292,0.0,0.0,79,0.00,CLR,,0.05,WeatherDisplay:10.37,2013-05-11 03:02:00,
2013-05-10 22:03:00,35.2,29.7,28.73,WNW,292,0.0,0.0,80,0.00,CLR,,0.05,WeatherDisplay:10.37,2013-05-11 03:03:00,
2013-05-10 22:05:00,35.1,29.2,28.73,WNW,292,0.0,0.0,79,0.00,CLR,,0.05,WeatherDisplay:10.37,2013-05-11 03:05:00,
2013-05-10 22:07:00,35.2,29.7,28.73,WNW,292,0.0,0.0,80,0.00,CLR,,0.05,WeatherDisplay:10.37,2013-05-11 03:07:00,
2013-05-10 22:08:00,35.1,29.5,28.73,WNW,292,0.0,0.0,80,0.00,CLR,,0.05,WeatherDisplay:10.37,2013-05-11 03:08:00,
2013-05-10 22:09:00,35.1,29.5,28.73,WNW,292,0.0,0.0,80,0.00,CLR,,0.05,WeatherDisplay:10.37,2013-05-11 03:09:00,
2013-05-10 22:11:00,35.1,29.5,28.76,WNW,292,0.0,0.0,80,0.00,CLR,,0.05,WeatherDisplay:10.37,2013-05-11 03:11:00,
2013-05-10 22:12:00,35.1,29.5,28.76,NW,315,0.0,0.0,80,0.00,CLR,,0.05,WeatherDisplay:10.37,2013-05-11 03:12:00,
2013-05-10 22:13:00,35.1,29.2,28.76,NW,315,0.0,0.0,79,0.00,CLR,,0.05,WeatherDisplay:10.37,2013-05-11 03:13:00,
2013-05-10 22:14:00,35.1,29.5,28.76,NW,315,0.0,0.0,80,0.00,CLR,,0.05,WeatherDisplay:10.37,2013-05-11 03:14:00,
2013-05-10 22:16:00,34.9,29.6,28.76,NW,315,0.0,0.0,81,0.00,CLR,,0.05,WeatherDisplay:10.37,2013-05-11 03:16:00,
2013-05-10 22:17:00,34.9,29.6,28.76,NW,315,0.0,0.0,81,0.00,CLR,,0.05,WeatherDisplay:10.37,2013-05-11 03:17:00,
2013-05-10 22:18:00,34.9,29.6,28.76,NW,315,0.0,0.0,81,0.00,CLR,,0.05,WeatherDisplay:10.37,2013-05-11 03:18:00,
2013-05-10 22:19:00,34.9,29.9,28.76,NW,315,0.0,0.0,82,0.00,CLR,,0.05,WeatherDisplay:10.37,2013-05-11 03:19:00,
2013-05-10 22:21:00,34.7,29.8,28.76,NW,315,0.0,0.0,82,0.00,CLR,,0.05,WeatherDisplay:10.37,2013-05-11 03:21:00,
2013-05-10 22:22:00,34.7,29.5,28.76,NW,315,0.0,0.0,81,0.00,CLR,,0.05,WeatherDisplay:10.37,2013-05-11 03:22:00,
2013-05-10 22:23:00,34.7,29.5,28.76,NW,315,0.0,0.0,81,0.00,CLR,,0.05,WeatherDisplay:10.37,2013-05-11 03:23:00,
2013-05-10 22:24:00,34.7,29.5,28.76,NW,315,0.0,0.0,81,0.00,CLR,,0.05,WeatherDisplay:10.37,2013-05-11 03:24:00,
2013-05-10 22:27:00,34.7,29.8,28.73,NE,45,0.0,0.0,82,0.00,CLR,,0.05,WeatherDisplay:10.37,2013-05-11 03:27:00,
2013-05-10 22:28:00,34.9,29.9,28.73,NE,45,0.0,0.0,82,0.00,CLR,,0.05,WeatherDisplay:10.37,2013-05-11 03:28:00,
2013-05-10 22:31:00,35.1,30.1,28.73,NE,45,0.0,0.0,82,0.00,CLR,,0.05,WeatherDisplay:10.37,2013-05-11 03:31:00,
2013-05-10 22:32:00,35.1,30.4,28.73,NE,45,0.0,0.0,83,0.00,CLR,,0.05,WeatherDisplay:10.37,2013-05-11 03:32:00,
2013-05-10 22:33:00,35.1,30.7,28.73,NE,45,0.0,0.0,84,0.00,CLR,,0.05,WeatherDisplay:10.37,2013-05-11 03:33:00,
2013-05-10 22:37:00,35.2,30.9,28.73,NE,45,0.0,0.0,84,0.00,CLR,,0.05,WeatherDisplay:10.37,2013-05-11 03:37:00,
2013-05-10 22:38:00,35.4,31.1,28.73,NE,45,0.0,0.0,84,0.00,CLR,,0.05,WeatherDisplay:10.37,2013-05-11 03:38:00,
2013-05-10 22:39:00,35.6,31.2,28.73,NE,45,0.0,0.0,84,0.00,CLR,,0.05,WeatherDisplay:10.37,2013-05-11 03:39:00,
2013-05-10 22:42:00,36.0,31.9,28.73,West,270,2.3,0.0,85,0.00,CLR,,0.05,WeatherDisplay:10.37,2013-05-11 03:42:00,
2013-05-10 22:43:00,36.0,31.9,28.73,West,270,0.0,0.0,85,0.00,CLR,,0.05,WeatherDisplay:10.37,2013-05-11 03:43:00,
2013-05-10 22:44:00,36.1,32.1,28.73,West,270,0.0,0.0,85,0.00,CLR,,0.05,WeatherDisplay:10.37,2013-05-11 03:44:00,
2013-05-10 22:47:00,36.5,32.7,28.73,WNW,292,1.2,0.0,86,0.00,CLR,,0.05,WeatherDisplay:10.37,2013-05-11 03:47:00,
2013-05-10 22:48:00,36.7,32.9,28.73,West,270,0.0,0.0,86,0.00,CLR,,0.05,WeatherDisplay:10.37,2013-05-11 03:48:00,
2013-05-10 22:49:00,36.7,32.9,28.73,WSW,248,2.3,0.0,86,0.00,CLR,,0.05,WeatherDisplay:10.37,2013-05-11 03:49:00,
2013-05-10 22:53:00,36.7,32.9,28.73,SSW,202,0.0,0.0,86,0.00,CLR,,0.05,WeatherDisplay:10.37,2013-05-11 03:53:00,
2013-05-10 22:54:00,36.9,33.1,28.73,WNW,292,1.2,1.2,86,0.00,CLR,,0.05,WeatherDisplay:10.37,2013-05-11 03:54:00,
2013-05-10 22:58:00,37.2,34.3,28.73,West,270,5.8,5.8,89,0.00,CLR,,0.05,WeatherDisplay:10.37,2013-05-11 03:58:00,
2013-05-10 22:59:00,37.4,34.5,28.73,NW,315,2.3,2.3,89,0.00,CLR,,0.05,WeatherDisplay:10.37,2013-05-11 03:59:00,
2013-05-10 23:00:00,37.6,34.9,28.73,NNE,22,2.3,2.3,90,0.00,CLR,,0.05,WeatherDisplay:10.37,2013-05-11 04:00:00,
2013-05-10 23:01:00,37.6,34.9,28.73,West,270,2.3,2.3,90,0.00,CLR,,0.05,WeatherDisplay:10.37,2013-05-11 04:01:00,
2013-05-10 23:02:00,37.6,34.9,28.73,South,180,2.3,2.3,90,0.00,CLR,,0.05,WeatherDisplay:10.37,2013-05-11 04:02:00,
2013-05-10 23:06:00,38.1,35.7,28.73,SW,225,1.2,1.2,91,0.00,CLR,,0.05,WeatherDisplay:10.37,2013-05-11 04:06:00,
2013-05-10 23:07:00,38.3,35.9,28.73,WSW,248,1.2,1.2,91,0.00,CLR,,0.05,WeatherDisplay:10.37,2013-05-11 04:07:00,
2013-05-10 23:08:00,38.3,35.9,28.73,SSW,202,1.2,0.0,91,0.00,CLR,,0.05,WeatherDisplay:10.37,2013-05-11 04:08:00,
2013-05-10 23:11:00,38.3,35.6,28.73,WSW,248,2.3,2.3,90,0.00,CLR,,0.05,WeatherDisplay:10.37,2013-05-11 04:11:00,
2013-05-10 23:12:00,38.3,35.6,28.73,WSW,248,2.3,2.3,90,0.00,CLR,,0.05,WeatherDisplay:10.37,2013-05-11 04:12:00,
2013-05-10 23:13:00,38.3,35.6,28.73,WSW,248,2.3,2.3,90,0.00,CLR,,0.05,WeatherDisplay:10.37,2013-05-11 04:13:00,
2013-05-10 23:16:00,38.3,35.3,28.73,South,180,3.5,3.5,89,0.00,CLR,,0.05,WeatherDisplay:10.37,2013-05-11 04:16:00,
2013-05-10 23:17:00,38.5,35.5,28.73,NW,315,3.5,3.5,89,0.00,CLR,,0.05,WeatherDisplay:10.37,2013-05-11 04:17:00,
2013-05-10 23:18:00,38.5,35.5,28.73,NW,315,3.5,3.5,89,0.00,CLR,,0.05,WeatherDisplay:10.37,2013-05-11 04:18:00,
2013-05-10 23:22:00,38.8,35.9,28.73,South,180,5.8,5.8,89,0.00,CLR,,0.05,WeatherDisplay:10.37,2013-05-11 04:22:00,
2013-05-10 23:23:00,38.8,35.9,28.73,SSE,158,3.5,3.5,89,0.00,CLR,,0.05,WeatherDisplay:10.37,2013-05-11 04:23:00,
2013-05-10 23:27:00,39.0,35.8,28.73,WNW,292,3.5,3.5,88,0.00,CLR,,0.05,WeatherDisplay:10.37,2013-05-11 04:27:00,
2013-05-10 23:28:00,39.0,35.8,28.73,WSW,248,2.3,2.3,88,0.00,CLR,,0.05,WeatherDisplay:10.37,2013-05-11 04:28:00,
2013-05-10 23:29:00,39.0,35.8,28.73,SW,225,2.3,2.3,88,0.00,CLR,,0.05,WeatherDisplay:10.37,2013-05-11 04:29:00,
2013-05-10 23:32:00,39.2,35.7,28.73,WSW,248,4.6,4.6,87,0.00,CLR,,0.05,WeatherDisplay:10.37,2013-05-11 04:32:00,
2013-05-10 23:33:00,39.2,35.7,28.73,SSW,202,5.8,5.8,87,0.00,CLR,,0.05,WeatherDisplay:10.37,2013-05-11 04:33:00,
2013-05-10 23:34:00,39.2,35.7,28.73,South,180,3.5,3.5,87,0.00,CLR,,0.05,WeatherDisplay:10.37,2013-05-11 04:34:00,
2013-05-10 23:35:00,39.2,35.4,28.73,SW,225,3.1,3.1,86,0.00,CLR,,0.05,WeatherDisplay:10.37,2013-05-11 04:35:00,
2013-05-10 23:38:00,39.2,35.4,28.73,WSW,248,4.6,4.6,86,0.00,CLR,,0.05,WeatherDisplay:10.37,2013-05-11 04:38:00,
2013-05-10 23:39:00,39.2,35.4,28.73,WSW,248,4.6,4.6,86,0.00,CLR,,0.05,WeatherDisplay:10.37,2013-05-11 04:39:00,
2013-05-10 23:40:00,39.2,35.4,28.73,WSW,248,3.5,3.5,86,0.00,CLR,,0.05,WeatherDisplay:10.37,2013-05-11 04:40:00,
2013-05-10 23:43:00,39.2,35.1,28.73,SW,225,1.2,0.0,85,0.00,CLR,,0.05,WeatherDisplay:10.37,2013-05-11 04:43:00,
2013-05-10 23:44:00,39.2,35.1,28.73,South,180,3.5,3.5,85,0.00,CLR,,0.05,WeatherDisplay:10.37,2013-05-11 04:44:00,
2013-05-10 23:45:00,39.2,35.1,28.73,South,180,2.3,2.3,85,0.00,CLR,,0.05,WeatherDisplay:10.37,2013-05-11 04:45:00,
2013-05-10 23:48:00,39.2,35.1,28.73,SW,225,2.3,2.3,85,0.00,CLR,,0.05,WeatherDisplay:10.37,2013-05-11 04:48:00,
2013-05-10 23:49:00,39.2,35.1,28.73,WSW,248,2.9,2.9,85,0.00,CLR,,0.05,WeatherDisplay:10.37,2013-05-11 04:49:00,
2013-05-10 23:50:00,39.2,35.1,28.73,WSW,248,3.5,3.5,85,0.00,CLR,,0.05,WeatherDisplay:10.37,2013-05-11 04:50:00,
2013-05-10 23:51:00,39.2,35.1,28.73,WSW,248,3.5,0.0,85,0.00,CLR,,0.05,WeatherDisplay:10.37,2013-05-11 04:51:00,
2013-05-10 23:53:00,39.2,35.1,28.73,NE,45,3.5,3.5,85,0.00,CLR,,0.05,WeatherDisplay:10.37,2013-05-11 04:53:00,
2013-05-10 23:54:00,39.2,35.1,28.73,NW,315,3.5,3.5,85,0.00,CLR,,0.05,WeatherDisplay:10.37,2013-05-11 04:54:00,
2013-05-10 23:55:00,39.2,35.1,28.73,NNW,338,3.5,3.5,85,0.00,CLR,,0.05,WeatherDisplay:10.37,2013-05-11 04:55:00,
2013-05-10 23:56:00,39.2,35.1,28.73,West,270,3.5,3.5,85,0.00,CLR,,0.05,WeatherDisplay:10.37,2013-05-11 04:56:00,
2013-05-10 23:59:00,39.4,35.2,28.73,NE,45,3.8,3.8,85,0.00,CLR,,0.05,WeatherDisplay:10.37,2013-05-11 04:59:00,